<?xml version="1.0" encoding="UTF-8" standalone="no" ?>
<gpx xmlns="http://www.topografix.com/GPX/1/1" xmlns:xsi="http://www.w3.org/2001/XMLSchema-instance" xsi:schemaLocation="http://www.topografix.com/GPX/1/1 http://www.topografix.com/GPX/1/1/gpx.xsd" version="1.1" creator="VisuGPX - https://www.visugpx.com">
  <metadata>
    <name>Sur les hauteurs d'Uchaud</name>
    <desc><![CDATA[Au depart d'Uchaud c'est une rando reprise sur ce site mais qui avait besoin d'une mise a jour]]></desc>
  </metadata>
  <trk>
    <name><![CDATA[20171104142051-DXkSl]]></name>
    <trkseg>
      <trkpt lat="43.75641" lon="4.26618">
        <ele>24</ele>
        <time>2017-11-03T14:07:56 01:00</time>
      </trkpt>
      <trkpt lat="43.75633" lon="4.26648">
        <ele>24</ele>
        <time>2017-11-03T14:08:15 01:00</time>
      </trkpt>
      <trkpt lat="43.75654" lon="4.2664">
        <ele>24</ele>
        <time>2017-11-03T14:08:23 01:00</time>
      </trkpt>
      <trkpt lat="43.75676" lon="4.26621">
        <ele>26</ele>
        <time>2017-11-03T14:08:30 01:00</time>
      </trkpt>
      <trkpt lat="43.75698" lon="4.26603">
        <ele>26</ele>
        <time>2017-11-03T14:08:37 01:00</time>
      </trkpt>
      <trkpt lat="43.75721" lon="4.26602">
        <ele>26</ele>
        <time>2017-11-03T14:08:46 01:00</time>
      </trkpt>
      <trkpt lat="43.75728" lon="4.26632">
        <ele>26</ele>
        <time>2017-11-03T14:08:53 01:00</time>
      </trkpt>
      <trkpt lat="43.75736" lon="4.26662">
        <ele>27</ele>
        <time>2017-11-03T14:08:59 01:00</time>
      </trkpt>
      <trkpt lat="43.75746" lon="4.26692">
        <ele>26</ele>
        <time>2017-11-03T14:09:05 01:00</time>
      </trkpt>
      <trkpt lat="43.7576" lon="4.26722">
        <ele>27</ele>
        <time>2017-11-03T14:09:12 01:00</time>
      </trkpt>
      <trkpt lat="43.75771" lon="4.26749">
        <ele>27</ele>
        <time>2017-11-03T14:09:19 01:00</time>
      </trkpt>
      <trkpt lat="43.75784" lon="4.26778">
        <ele>28</ele>
        <time>2017-11-03T14:09:27 01:00</time>
      </trkpt>
      <trkpt lat="43.75773" lon="4.26747">
        <ele>27</ele>
        <time>2017-11-03T14:09:38 01:00</time>
      </trkpt>
      <trkpt lat="43.75759" lon="4.26716">
        <ele>27</ele>
        <time>2017-11-03T14:09:43 01:00</time>
      </trkpt>
      <trkpt lat="43.75747" lon="4.26687">
        <ele>26</ele>
        <time>2017-11-03T14:09:47 01:00</time>
      </trkpt>
      <trkpt lat="43.75736" lon="4.26657">
        <ele>26</ele>
        <time>2017-11-03T14:09:51 01:00</time>
      </trkpt>
      <trkpt lat="43.75727" lon="4.26626">
        <ele>26</ele>
        <time>2017-11-03T14:09:55 01:00</time>
      </trkpt>
      <trkpt lat="43.75719" lon="4.26594">
        <ele>26</ele>
        <time>2017-11-03T14:09:59 01:00</time>
      </trkpt>
      <trkpt lat="43.7571" lon="4.26557">
        <ele>27</ele>
        <time>2017-11-03T14:10:04 01:00</time>
      </trkpt>
      <trkpt lat="43.75699" lon="4.26529">
        <ele>26</ele>
        <time>2017-11-03T14:10:08 01:00</time>
      </trkpt>
      <trkpt lat="43.75687" lon="4.265">
        <ele>26</ele>
        <time>2017-11-03T14:10:12 01:00</time>
      </trkpt>
      <trkpt lat="43.75676" lon="4.26472">
        <ele>26</ele>
        <time>2017-11-03T14:10:18 01:00</time>
      </trkpt>
      <trkpt lat="43.75696" lon="4.2645">
        <ele>27</ele>
        <time>2017-11-03T14:10:25 01:00</time>
      </trkpt>
      <trkpt lat="43.7572" lon="4.26436">
        <ele>27</ele>
        <time>2017-11-03T14:10:32 01:00</time>
      </trkpt>
      <trkpt lat="43.75738" lon="4.26462">
        <ele>27</ele>
        <time>2017-11-03T14:10:40 01:00</time>
      </trkpt>
      <trkpt lat="43.7575" lon="4.26493">
        <ele>27</ele>
        <time>2017-11-03T14:10:47 01:00</time>
      </trkpt>
      <trkpt lat="43.75765" lon="4.26517">
        <ele>28</ele>
        <time>2017-11-03T14:10:53 01:00</time>
      </trkpt>
      <trkpt lat="43.75788" lon="4.26516">
        <ele>28</ele>
        <time>2017-11-03T14:10:59 01:00</time>
      </trkpt>
      <trkpt lat="43.75811" lon="4.26501">
        <ele>29</ele>
        <time>2017-11-03T14:11:05 01:00</time>
      </trkpt>
      <trkpt lat="43.7583" lon="4.26483">
        <ele>29</ele>
        <time>2017-11-03T14:11:30 01:00</time>
      </trkpt>
      <trkpt lat="43.75821" lon="4.26452">
        <ele>30</ele>
        <time>2017-11-03T14:11:39 01:00</time>
      </trkpt>
      <trkpt lat="43.75813" lon="4.26421">
        <ele>30</ele>
        <time>2017-11-03T14:11:47 01:00</time>
      </trkpt>
      <trkpt lat="43.75804" lon="4.26389">
        <ele>32</ele>
        <time>2017-11-03T14:11:55 01:00</time>
      </trkpt>
      <trkpt lat="43.75797" lon="4.26356">
        <ele>33</ele>
        <time>2017-11-03T14:12:03 01:00</time>
      </trkpt>
      <trkpt lat="43.75796" lon="4.26325">
        <ele>34</ele>
        <time>2017-11-03T14:12:10 01:00</time>
      </trkpt>
      <trkpt lat="43.7581" lon="4.26297">
        <ele>34</ele>
        <time>2017-11-03T14:12:18 01:00</time>
      </trkpt>
      <trkpt lat="43.75825" lon="4.26273">
        <ele>35</ele>
        <time>2017-11-03T14:12:26 01:00</time>
      </trkpt>
      <trkpt lat="43.7584" lon="4.26249">
        <ele>35</ele>
        <time>2017-11-03T14:12:34 01:00</time>
      </trkpt>
      <trkpt lat="43.75855" lon="4.26225">
        <ele>34</ele>
        <time>2017-11-03T14:12:41 01:00</time>
      </trkpt>
      <trkpt lat="43.75871" lon="4.262">
        <ele>33</ele>
        <time>2017-11-03T14:12:47 01:00</time>
      </trkpt>
      <trkpt lat="43.75887" lon="4.26177">
        <ele>33</ele>
        <time>2017-11-03T14:12:52 01:00</time>
      </trkpt>
      <trkpt lat="43.75906" lon="4.26148">
        <ele>31</ele>
        <time>2017-11-03T14:12:57 01:00</time>
      </trkpt>
      <trkpt lat="43.75923" lon="4.26123">
        <ele>33</ele>
        <time>2017-11-03T14:13:01 01:00</time>
      </trkpt>
      <trkpt lat="43.75938" lon="4.261">
        <ele>32</ele>
        <time>2017-11-03T14:13:05 01:00</time>
      </trkpt>
      <trkpt lat="43.75955" lon="4.26073">
        <ele>31</ele>
        <time>2017-11-03T14:13:10 01:00</time>
      </trkpt>
      <trkpt lat="43.7597" lon="4.26049">
        <ele>31</ele>
        <time>2017-11-03T14:13:17 01:00</time>
      </trkpt>
      <trkpt lat="43.75968" lon="4.26014">
        <ele>30</ele>
        <time>2017-11-03T14:13:42 01:00</time>
      </trkpt>
      <trkpt lat="43.7597" lon="4.2598">
        <ele>28</ele>
        <time>2017-11-03T14:13:49 01:00</time>
      </trkpt>
      <trkpt lat="43.75978" lon="4.25951">
        <ele>28</ele>
        <time>2017-11-03T14:13:54 01:00</time>
      </trkpt>
      <trkpt lat="43.75987" lon="4.2592">
        <ele>29</ele>
        <time>2017-11-03T14:14:00 01:00</time>
      </trkpt>
      <trkpt lat="43.75997" lon="4.25887">
        <ele>29</ele>
        <time>2017-11-03T14:14:06 01:00</time>
      </trkpt>
      <trkpt lat="43.76006" lon="4.25856">
        <ele>31</ele>
        <time>2017-11-03T14:14:11 01:00</time>
      </trkpt>
      <trkpt lat="43.76017" lon="4.25826">
        <ele>31</ele>
        <time>2017-11-03T14:14:16 01:00</time>
      </trkpt>
      <trkpt lat="43.7603" lon="4.25795">
        <ele>31</ele>
        <time>2017-11-03T14:14:22 01:00</time>
      </trkpt>
      <trkpt lat="43.76043" lon="4.25763">
        <ele>31</ele>
        <time>2017-11-03T14:14:28 01:00</time>
      </trkpt>
      <trkpt lat="43.76056" lon="4.25731">
        <ele>31</ele>
        <time>2017-11-03T14:14:34 01:00</time>
      </trkpt>
      <trkpt lat="43.76068" lon="4.25701">
        <ele>31</ele>
        <time>2017-11-03T14:14:39 01:00</time>
      </trkpt>
      <trkpt lat="43.76079" lon="4.25669">
        <ele>30</ele>
        <time>2017-11-03T14:14:44 01:00</time>
      </trkpt>
      <trkpt lat="43.76084" lon="4.25636">
        <ele>31</ele>
        <time>2017-11-03T14:14:49 01:00</time>
      </trkpt>
      <trkpt lat="43.76086" lon="4.25604">
        <ele>31</ele>
        <time>2017-11-03T14:14:55 01:00</time>
      </trkpt>
      <trkpt lat="43.76087" lon="4.25571">
        <ele>31</ele>
        <time>2017-11-03T14:15:01 01:00</time>
      </trkpt>
      <trkpt lat="43.76086" lon="4.25539">
        <ele>32</ele>
        <time>2017-11-03T14:15:06 01:00</time>
      </trkpt>
      <trkpt lat="43.76089" lon="4.25507">
        <ele>33</ele>
        <time>2017-11-03T14:15:12 01:00</time>
      </trkpt>
      <trkpt lat="43.76105" lon="4.25481">
        <ele>33</ele>
        <time>2017-11-03T14:15:18 01:00</time>
      </trkpt>
      <trkpt lat="43.76121" lon="4.25458">
        <ele>33</ele>
        <time>2017-11-03T14:15:23 01:00</time>
      </trkpt>
      <trkpt lat="43.76134" lon="4.25431">
        <ele>33</ele>
        <time>2017-11-03T14:15:29 01:00</time>
      </trkpt>
      <trkpt lat="43.76149" lon="4.25402">
        <ele>34</ele>
        <time>2017-11-03T14:15:36 01:00</time>
      </trkpt>
      <trkpt lat="43.76166" lon="4.25379">
        <ele>34</ele>
        <time>2017-11-03T14:15:43 01:00</time>
      </trkpt>
      <trkpt lat="43.7618" lon="4.25352">
        <ele>35</ele>
        <time>2017-11-03T14:15:50 01:00</time>
      </trkpt>
      <trkpt lat="43.76193" lon="4.25326">
        <ele>36</ele>
        <time>2017-11-03T14:15:56 01:00</time>
      </trkpt>
      <trkpt lat="43.76205" lon="4.25299">
        <ele>36</ele>
        <time>2017-11-03T14:16:02 01:00</time>
      </trkpt>
      <trkpt lat="43.76216" lon="4.25268">
        <ele>37</ele>
        <time>2017-11-03T14:16:09 01:00</time>
      </trkpt>
      <trkpt lat="43.76224" lon="4.25235">
        <ele>39</ele>
        <time>2017-11-03T14:16:17 01:00</time>
      </trkpt>
      <trkpt lat="43.76231" lon="4.25202">
        <ele>39</ele>
        <time>2017-11-03T14:16:27 01:00</time>
      </trkpt>
      <trkpt lat="43.76236" lon="4.25171">
        <ele>41</ele>
        <time>2017-11-03T14:16:37 01:00</time>
      </trkpt>
      <trkpt lat="43.76258" lon="4.25158">
        <ele>44</ele>
        <time>2017-11-03T14:16:50 01:00</time>
      </trkpt>
      <trkpt lat="43.76278" lon="4.25142">
        <ele>46</ele>
        <time>2017-11-03T14:17:03 01:00</time>
      </trkpt>
      <trkpt lat="43.76298" lon="4.25124">
        <ele>48</ele>
        <time>2017-11-03T14:17:18 01:00</time>
      </trkpt>
      <trkpt lat="43.76279" lon="4.25142">
        <ele>46</ele>
        <time>2017-11-03T14:20:09 01:00</time>
      </trkpt>
      <trkpt lat="43.76257" lon="4.25159">
        <ele>44</ele>
        <time>2017-11-03T14:20:20 01:00</time>
      </trkpt>
      <trkpt lat="43.76237" lon="4.25172">
        <ele>41</ele>
        <time>2017-11-03T14:20:33 01:00</time>
      </trkpt>
      <trkpt lat="43.76228" lon="4.25144">
        <ele>43</ele>
        <time>2017-11-03T14:22:31 01:00</time>
      </trkpt>
      <trkpt lat="43.76246" lon="4.25165">
        <ele>42</ele>
        <time>2017-11-03T14:26:02 01:00</time>
      </trkpt>
      <trkpt lat="43.76268" lon="4.25159">
        <ele>45</ele>
        <time>2017-11-03T14:26:43 01:00</time>
      </trkpt>
      <trkpt lat="43.76285" lon="4.25137">
        <ele>47</ele>
        <time>2017-11-03T14:28:00 01:00</time>
      </trkpt>
      <trkpt lat="43.76264" lon="4.25154">
        <ele>45</ele>
        <time>2017-11-03T14:29:40 01:00</time>
      </trkpt>
      <trkpt lat="43.76242" lon="4.25165">
        <ele>42</ele>
        <time>2017-11-03T14:29:50 01:00</time>
      </trkpt>
      <trkpt lat="43.76255" lon="4.25193">
        <ele>42</ele>
        <time>2017-11-03T14:30:11 01:00</time>
      </trkpt>
      <trkpt lat="43.76275" lon="4.25207">
        <ele>42</ele>
        <time>2017-11-03T14:30:23 01:00</time>
      </trkpt>
      <trkpt lat="43.76286" lon="4.25236">
        <ele>41</ele>
        <time>2017-11-03T14:30:34 01:00</time>
      </trkpt>
      <trkpt lat="43.76301" lon="4.25259">
        <ele>39</ele>
        <time>2017-11-03T14:30:42 01:00</time>
      </trkpt>
      <trkpt lat="43.76323" lon="4.25266">
        <ele>39</ele>
        <time>2017-11-03T14:30:52 01:00</time>
      </trkpt>
      <trkpt lat="43.76339" lon="4.25243">
        <ele>43</ele>
        <time>2017-11-03T14:31:12 01:00</time>
      </trkpt>
      <trkpt lat="43.76354" lon="4.25218">
        <ele>45</ele>
        <time>2017-11-03T14:31:24 01:00</time>
      </trkpt>
      <trkpt lat="43.7637" lon="4.25194">
        <ele>47</ele>
        <time>2017-11-03T14:31:37 01:00</time>
      </trkpt>
      <trkpt lat="43.76355" lon="4.2522">
        <ele>45</ele>
        <time>2017-11-03T14:33:06 01:00</time>
      </trkpt>
      <trkpt lat="43.76339" lon="4.25242">
        <ele>43</ele>
        <time>2017-11-03T14:33:17 01:00</time>
      </trkpt>
      <trkpt lat="43.76343" lon="4.25274">
        <ele>41</ele>
        <time>2017-11-03T14:33:41 01:00</time>
      </trkpt>
      <trkpt lat="43.76357" lon="4.25299">
        <ele>40</ele>
        <time>2017-11-03T14:34:02 01:00</time>
      </trkpt>
      <trkpt lat="43.76374" lon="4.25322">
        <ele>40</ele>
        <time>2017-11-03T14:34:32 01:00</time>
      </trkpt>
      <trkpt lat="43.76383" lon="4.25352">
        <ele>38</ele>
        <time>2017-11-03T14:34:41 01:00</time>
      </trkpt>
      <trkpt lat="43.76376" lon="4.25382">
        <ele>38</ele>
        <time>2017-11-03T14:34:50 01:00</time>
      </trkpt>
      <trkpt lat="43.76366" lon="4.25413">
        <ele>38</ele>
        <time>2017-11-03T14:34:58 01:00</time>
      </trkpt>
      <trkpt lat="43.76381" lon="4.25439">
        <ele>38</ele>
        <time>2017-11-03T14:35:49 01:00</time>
      </trkpt>
      <trkpt lat="43.76402" lon="4.25422">
        <ele>39</ele>
        <time>2017-11-03T14:35:57 01:00</time>
      </trkpt>
      <trkpt lat="43.76423" lon="4.25405">
        <ele>39</ele>
        <time>2017-11-03T14:36:04 01:00</time>
      </trkpt>
      <trkpt lat="43.7644" lon="4.25384">
        <ele>40</ele>
        <time>2017-11-03T14:36:10 01:00</time>
      </trkpt>
      <trkpt lat="43.76457" lon="4.2536">
        <ele>40</ele>
        <time>2017-11-03T14:36:16 01:00</time>
      </trkpt>
      <trkpt lat="43.76474" lon="4.25334">
        <ele>40</ele>
        <time>2017-11-03T14:36:22 01:00</time>
      </trkpt>
      <trkpt lat="43.76491" lon="4.25307">
        <ele>42</ele>
        <time>2017-11-03T14:36:28 01:00</time>
      </trkpt>
      <trkpt lat="43.76508" lon="4.2528">
        <ele>41</ele>
        <time>2017-11-03T14:36:34 01:00</time>
      </trkpt>
      <trkpt lat="43.76525" lon="4.25254">
        <ele>41</ele>
        <time>2017-11-03T14:36:40 01:00</time>
      </trkpt>
      <trkpt lat="43.76543" lon="4.25226">
        <ele>42</ele>
        <time>2017-11-03T14:36:46 01:00</time>
      </trkpt>
      <trkpt lat="43.76558" lon="4.25201">
        <ele>43</ele>
        <time>2017-11-03T14:36:51 01:00</time>
      </trkpt>
      <trkpt lat="43.76575" lon="4.25176">
        <ele>42</ele>
        <time>2017-11-03T14:36:56 01:00</time>
      </trkpt>
      <trkpt lat="43.76592" lon="4.25148">
        <ele>42</ele>
        <time>2017-11-03T14:37:01 01:00</time>
      </trkpt>
      <trkpt lat="43.76609" lon="4.25122">
        <ele>42</ele>
        <time>2017-11-03T14:37:06 01:00</time>
      </trkpt>
      <trkpt lat="43.76626" lon="4.25093">
        <ele>42</ele>
        <time>2017-11-03T14:37:11 01:00</time>
      </trkpt>
      <trkpt lat="43.76644" lon="4.25066">
        <ele>42</ele>
        <time>2017-11-03T14:37:16 01:00</time>
      </trkpt>
      <trkpt lat="43.76661" lon="4.25038">
        <ele>42</ele>
        <time>2017-11-03T14:37:21 01:00</time>
      </trkpt>
      <trkpt lat="43.76679" lon="4.2501">
        <ele>42</ele>
        <time>2017-11-03T14:37:26 01:00</time>
      </trkpt>
      <trkpt lat="43.76694" lon="4.24979">
        <ele>43</ele>
        <time>2017-11-03T14:37:31 01:00</time>
      </trkpt>
      <trkpt lat="43.76708" lon="4.24947">
        <ele>44</ele>
        <time>2017-11-03T14:37:36 01:00</time>
      </trkpt>
      <trkpt lat="43.76721" lon="4.24914">
        <ele>45</ele>
        <time>2017-11-03T14:37:41 01:00</time>
      </trkpt>
      <trkpt lat="43.76733" lon="4.24882">
        <ele>45</ele>
        <time>2017-11-03T14:37:46 01:00</time>
      </trkpt>
      <trkpt lat="43.76745" lon="4.2485">
        <ele>46</ele>
        <time>2017-11-03T14:37:51 01:00</time>
      </trkpt>
      <trkpt lat="43.76757" lon="4.24819">
        <ele>49</ele>
        <time>2017-11-03T14:37:56 01:00</time>
      </trkpt>
      <trkpt lat="43.76769" lon="4.24789">
        <ele>49</ele>
        <time>2017-11-03T14:38:01 01:00</time>
      </trkpt>
      <trkpt lat="43.76781" lon="4.24761">
        <ele>49</ele>
        <time>2017-11-03T14:38:06 01:00</time>
      </trkpt>
      <trkpt lat="43.76791" lon="4.2473">
        <ele>51</ele>
        <time>2017-11-03T14:38:11 01:00</time>
      </trkpt>
      <trkpt lat="43.76801" lon="4.24702">
        <ele>51</ele>
        <time>2017-11-03T14:38:16 01:00</time>
      </trkpt>
      <trkpt lat="43.76811" lon="4.24673">
        <ele>52</ele>
        <time>2017-11-03T14:38:21 01:00</time>
      </trkpt>
      <trkpt lat="43.76822" lon="4.24643">
        <ele>53</ele>
        <time>2017-11-03T14:38:27 01:00</time>
      </trkpt>
      <trkpt lat="43.76833" lon="4.24613">
        <ele>53</ele>
        <time>2017-11-03T14:38:33 01:00</time>
      </trkpt>
      <trkpt lat="43.76842" lon="4.24583">
        <ele>56</ele>
        <time>2017-11-03T14:38:39 01:00</time>
      </trkpt>
      <trkpt lat="43.7685" lon="4.24553">
        <ele>58</ele>
        <time>2017-11-03T14:38:45 01:00</time>
      </trkpt>
      <trkpt lat="43.76858" lon="4.24522">
        <ele>58</ele>
        <time>2017-11-03T14:38:51 01:00</time>
      </trkpt>
      <trkpt lat="43.76865" lon="4.2449">
        <ele>58</ele>
        <time>2017-11-03T14:38:57 01:00</time>
      </trkpt>
      <trkpt lat="43.76874" lon="4.24457">
        <ele>58</ele>
        <time>2017-11-03T14:39:04 01:00</time>
      </trkpt>
      <trkpt lat="43.76887" lon="4.24425">
        <ele>59</ele>
        <time>2017-11-03T14:39:11 01:00</time>
      </trkpt>
      <trkpt lat="43.76901" lon="4.24395">
        <ele>60</ele>
        <time>2017-11-03T14:39:18 01:00</time>
      </trkpt>
      <trkpt lat="43.7688" lon="4.24373">
        <ele>59</ele>
        <time>2017-11-03T14:39:36 01:00</time>
      </trkpt>
      <trkpt lat="43.76856" lon="4.24362">
        <ele>58</ele>
        <time>2017-11-03T14:39:44 01:00</time>
      </trkpt>
      <trkpt lat="43.76835" lon="4.24344">
        <ele>58</ele>
        <time>2017-11-03T14:39:49 01:00</time>
      </trkpt>
      <trkpt lat="43.76836" lon="4.2431">
        <ele>59</ele>
        <time>2017-11-03T14:40:00 01:00</time>
      </trkpt>
      <trkpt lat="43.76855" lon="4.24293">
        <ele>61</ele>
        <time>2017-11-03T14:40:27 01:00</time>
      </trkpt>
      <trkpt lat="43.76873" lon="4.24273">
        <ele>62</ele>
        <time>2017-11-03T14:40:49 01:00</time>
      </trkpt>
      <trkpt lat="43.76892" lon="4.24254">
        <ele>63</ele>
        <time>2017-11-03T14:41:13 01:00</time>
      </trkpt>
      <trkpt lat="43.7691" lon="4.24232">
        <ele>65</ele>
        <time>2017-11-03T14:42:09 01:00</time>
      </trkpt>
      <trkpt lat="43.76932" lon="4.24218">
        <ele>67</ele>
        <time>2017-11-03T14:42:21 01:00</time>
      </trkpt>
      <trkpt lat="43.76951" lon="4.24196">
        <ele>68</ele>
        <time>2017-11-03T14:42:30 01:00</time>
      </trkpt>
      <trkpt lat="43.76968" lon="4.24175">
        <ele>68</ele>
        <time>2017-11-03T14:42:37 01:00</time>
      </trkpt>
      <trkpt lat="43.76989" lon="4.24153">
        <ele>69</ele>
        <time>2017-11-03T14:42:44 01:00</time>
      </trkpt>
      <trkpt lat="43.77007" lon="4.2413">
        <ele>71</ele>
        <time>2017-11-03T14:42:52 01:00</time>
      </trkpt>
      <trkpt lat="43.76992" lon="4.24101">
        <ele>69</ele>
        <time>2017-11-03T14:43:09 01:00</time>
      </trkpt>
      <trkpt lat="43.76966" lon="4.24086">
        <ele>68</ele>
        <time>2017-11-03T14:43:14 01:00</time>
      </trkpt>
      <trkpt lat="43.76941" lon="4.24074">
        <ele>68</ele>
        <time>2017-11-03T14:43:18 01:00</time>
      </trkpt>
      <trkpt lat="43.76912" lon="4.24065">
        <ele>66</ele>
        <time>2017-11-03T14:43:22 01:00</time>
      </trkpt>
      <trkpt lat="43.76888" lon="4.24059">
        <ele>66</ele>
        <time>2017-11-03T14:43:25 01:00</time>
      </trkpt>
      <trkpt lat="43.76866" lon="4.24048">
        <ele>65</ele>
        <time>2017-11-03T14:43:28 01:00</time>
      </trkpt>
      <trkpt lat="43.76844" lon="4.24037">
        <ele>65</ele>
        <time>2017-11-03T14:43:31 01:00</time>
      </trkpt>
      <trkpt lat="43.76816" lon="4.24027">
        <ele>64</ele>
        <time>2017-11-03T14:43:35 01:00</time>
      </trkpt>
      <trkpt lat="43.76791" lon="4.24019">
        <ele>64</ele>
        <time>2017-11-03T14:43:39 01:00</time>
      </trkpt>
      <trkpt lat="43.7677" lon="4.24005">
        <ele>64</ele>
        <time>2017-11-03T14:43:43 01:00</time>
      </trkpt>
      <trkpt lat="43.76747" lon="4.23992">
        <ele>65</ele>
        <time>2017-11-03T14:43:47 01:00</time>
      </trkpt>
      <trkpt lat="43.76725" lon="4.23981">
        <ele>66</ele>
        <time>2017-11-03T14:43:51 01:00</time>
      </trkpt>
      <trkpt lat="43.76704" lon="4.23972">
        <ele>66</ele>
        <time>2017-11-03T14:43:55 01:00</time>
      </trkpt>
      <trkpt lat="43.76677" lon="4.23962">
        <ele>66</ele>
        <time>2017-11-03T14:44:00 01:00</time>
      </trkpt>
      <trkpt lat="43.76654" lon="4.23956">
        <ele>67</ele>
        <time>2017-11-03T14:44:05 01:00</time>
      </trkpt>
      <trkpt lat="43.76629" lon="4.23951">
        <ele>67</ele>
        <time>2017-11-03T14:44:11 01:00</time>
      </trkpt>
      <trkpt lat="43.76605" lon="4.23947">
        <ele>67</ele>
        <time>2017-11-03T14:44:17 01:00</time>
      </trkpt>
      <trkpt lat="43.76581" lon="4.23945">
        <ele>68</ele>
        <time>2017-11-03T14:44:23 01:00</time>
      </trkpt>
      <trkpt lat="43.76558" lon="4.23943">
        <ele>68</ele>
        <time>2017-11-03T14:44:30 01:00</time>
      </trkpt>
      <trkpt lat="43.76535" lon="4.23942">
        <ele>69</ele>
        <time>2017-11-03T14:44:38 01:00</time>
      </trkpt>
      <trkpt lat="43.76512" lon="4.23948">
        <ele>69</ele>
        <time>2017-11-03T14:44:46 01:00</time>
      </trkpt>
      <trkpt lat="43.76488" lon="4.23955">
        <ele>69</ele>
        <time>2017-11-03T14:44:54 01:00</time>
      </trkpt>
      <trkpt lat="43.76464" lon="4.2396">
        <ele>69</ele>
        <time>2017-11-03T14:45:01 01:00</time>
      </trkpt>
      <trkpt lat="43.76442" lon="4.23972">
        <ele>68</ele>
        <time>2017-11-03T14:45:07 01:00</time>
      </trkpt>
      <trkpt lat="43.76418" lon="4.23986">
        <ele>68</ele>
        <time>2017-11-03T14:45:13 01:00</time>
      </trkpt>
      <trkpt lat="43.76395" lon="4.23996">
        <ele>67</ele>
        <time>2017-11-03T14:45:18 01:00</time>
      </trkpt>
      <trkpt lat="43.76373" lon="4.24005">
        <ele>67</ele>
        <time>2017-11-03T14:45:22 01:00</time>
      </trkpt>
      <trkpt lat="43.76349" lon="4.24015">
        <ele>67</ele>
        <time>2017-11-03T14:45:26 01:00</time>
      </trkpt>
      <trkpt lat="43.76321" lon="4.24024">
        <ele>65</ele>
        <time>2017-11-03T14:45:30 01:00</time>
      </trkpt>
      <trkpt lat="43.76298" lon="4.24032">
        <ele>64</ele>
        <time>2017-11-03T14:45:33 01:00</time>
      </trkpt>
      <trkpt lat="43.76274" lon="4.2404">
        <ele>63</ele>
        <time>2017-11-03T14:45:36 01:00</time>
      </trkpt>
      <trkpt lat="43.76249" lon="4.24051">
        <ele>62</ele>
        <time>2017-11-03T14:45:39 01:00</time>
      </trkpt>
      <trkpt lat="43.76225" lon="4.24062">
        <ele>62</ele>
        <time>2017-11-03T14:45:42 01:00</time>
      </trkpt>
      <trkpt lat="43.76202" lon="4.24074">
        <ele>61</ele>
        <time>2017-11-03T14:45:45 01:00</time>
      </trkpt>
      <trkpt lat="43.7618" lon="4.24082">
        <ele>61</ele>
        <time>2017-11-03T14:45:48 01:00</time>
      </trkpt>
      <trkpt lat="43.76153" lon="4.24093">
        <ele>59</ele>
        <time>2017-11-03T14:45:52 01:00</time>
      </trkpt>
      <trkpt lat="43.7613" lon="4.24094">
        <ele>59</ele>
        <time>2017-11-03T14:47:50 01:00</time>
      </trkpt>
      <trkpt lat="43.76103" lon="4.24096">
        <ele>58</ele>
        <time>2017-11-03T14:47:58 01:00</time>
      </trkpt>
      <trkpt lat="43.76079" lon="4.24104">
        <ele>58</ele>
        <time>2017-11-03T14:48:03 01:00</time>
      </trkpt>
      <trkpt lat="43.76056" lon="4.24107">
        <ele>57</ele>
        <time>2017-11-03T14:48:07 01:00</time>
      </trkpt>
      <trkpt lat="43.76033" lon="4.24109">
        <ele>57</ele>
        <time>2017-11-03T14:48:11 01:00</time>
      </trkpt>
      <trkpt lat="43.76008" lon="4.24112">
        <ele>57</ele>
        <time>2017-11-03T14:48:15 01:00</time>
      </trkpt>
      <trkpt lat="43.75983" lon="4.24116">
        <ele>56</ele>
        <time>2017-11-03T14:48:19 01:00</time>
      </trkpt>
      <trkpt lat="43.75957" lon="4.24119">
        <ele>55</ele>
        <time>2017-11-03T14:48:23 01:00</time>
      </trkpt>
      <trkpt lat="43.75931" lon="4.24119">
        <ele>54</ele>
        <time>2017-11-03T14:48:27 01:00</time>
      </trkpt>
      <trkpt lat="43.75905" lon="4.24119">
        <ele>53</ele>
        <time>2017-11-03T14:48:31 01:00</time>
      </trkpt>
      <trkpt lat="43.75879" lon="4.24119">
        <ele>53</ele>
        <time>2017-11-03T14:48:35 01:00</time>
      </trkpt>
      <trkpt lat="43.75855" lon="4.24122">
        <ele>53</ele>
        <time>2017-11-03T14:48:39 01:00</time>
      </trkpt>
      <trkpt lat="43.75832" lon="4.24126">
        <ele>54</ele>
        <time>2017-11-03T14:48:43 01:00</time>
      </trkpt>
      <trkpt lat="43.7581" lon="4.24133">
        <ele>54</ele>
        <time>2017-11-03T14:48:48 01:00</time>
      </trkpt>
      <trkpt lat="43.75788" lon="4.2414">
        <ele>54</ele>
        <time>2017-11-03T14:48:56 01:00</time>
      </trkpt>
      <trkpt lat="43.7581" lon="4.24134">
        <ele>54</ele>
        <time>2017-11-03T14:49:07 01:00</time>
      </trkpt>
      <trkpt lat="43.75824" lon="4.24105">
        <ele>54</ele>
        <time>2017-11-03T14:49:14 01:00</time>
      </trkpt>
      <trkpt lat="43.75822" lon="4.2407">
        <ele>55</ele>
        <time>2017-11-03T14:49:21 01:00</time>
      </trkpt>
      <trkpt lat="43.75818" lon="4.24038">
        <ele>56</ele>
        <time>2017-11-03T14:49:27 01:00</time>
      </trkpt>
      <trkpt lat="43.75815" lon="4.24003">
        <ele>56</ele>
        <time>2017-11-03T14:49:34 01:00</time>
      </trkpt>
      <trkpt lat="43.7581" lon="4.23968">
        <ele>57</ele>
        <time>2017-11-03T14:49:41 01:00</time>
      </trkpt>
      <trkpt lat="43.75803" lon="4.23938">
        <ele>57</ele>
        <time>2017-11-03T14:49:47 01:00</time>
      </trkpt>
      <trkpt lat="43.75822" lon="4.23916">
        <ele>58</ele>
        <time>2017-11-03T14:49:57 01:00</time>
      </trkpt>
      <trkpt lat="43.75844" lon="4.23924">
        <ele>59</ele>
        <time>2017-11-03T14:50:05 01:00</time>
      </trkpt>
      <trkpt lat="43.75867" lon="4.23934">
        <ele>59</ele>
        <time>2017-11-03T14:50:14 01:00</time>
      </trkpt>
      <trkpt lat="43.75889" lon="4.23926">
        <ele>60</ele>
        <time>2017-11-03T14:50:22 01:00</time>
      </trkpt>
      <trkpt lat="43.75913" lon="4.23924">
        <ele>61</ele>
        <time>2017-11-03T14:50:31 01:00</time>
      </trkpt>
      <trkpt lat="43.75937" lon="4.2392">
        <ele>63</ele>
        <time>2017-11-03T14:50:40 01:00</time>
      </trkpt>
      <trkpt lat="43.7596" lon="4.23915">
        <ele>63</ele>
        <time>2017-11-03T14:50:48 01:00</time>
      </trkpt>
      <trkpt lat="43.75986" lon="4.23914">
        <ele>64</ele>
        <time>2017-11-03T14:50:57 01:00</time>
      </trkpt>
      <trkpt lat="43.7601" lon="4.23903">
        <ele>65</ele>
        <time>2017-11-03T14:51:06 01:00</time>
      </trkpt>
      <trkpt lat="43.76035" lon="4.23898">
        <ele>65</ele>
        <time>2017-11-03T14:51:15 01:00</time>
      </trkpt>
      <trkpt lat="43.76058" lon="4.23895">
        <ele>65</ele>
        <time>2017-11-03T14:51:23 01:00</time>
      </trkpt>
      <trkpt lat="43.76079" lon="4.23877">
        <ele>65</ele>
        <time>2017-11-03T14:51:31 01:00</time>
      </trkpt>
      <trkpt lat="43.76099" lon="4.2386">
        <ele>66</ele>
        <time>2017-11-03T14:51:38 01:00</time>
      </trkpt>
      <trkpt lat="43.76119" lon="4.23843">
        <ele>66</ele>
        <time>2017-11-03T14:51:45 01:00</time>
      </trkpt>
      <trkpt lat="43.76143" lon="4.23831">
        <ele>68</ele>
        <time>2017-11-03T14:51:53 01:00</time>
      </trkpt>
      <trkpt lat="43.76159" lon="4.23807">
        <ele>68</ele>
        <time>2017-11-03T14:52:02 01:00</time>
      </trkpt>
      <trkpt lat="43.76169" lon="4.23777">
        <ele>70</ele>
        <time>2017-11-03T14:52:11 01:00</time>
      </trkpt>
      <trkpt lat="43.76179" lon="4.23749">
        <ele>71</ele>
        <time>2017-11-03T14:52:36 01:00</time>
      </trkpt>
      <trkpt lat="43.7619" lon="4.2372">
        <ele>72</ele>
        <time>2017-11-03T14:52:48 01:00</time>
      </trkpt>
      <trkpt lat="43.76204" lon="4.23692">
        <ele>73</ele>
        <time>2017-11-03T14:52:58 01:00</time>
      </trkpt>
      <trkpt lat="43.76218" lon="4.23666">
        <ele>74</ele>
        <time>2017-11-03T14:53:07 01:00</time>
      </trkpt>
      <trkpt lat="43.76231" lon="4.23639">
        <ele>74</ele>
        <time>2017-11-03T14:53:15 01:00</time>
      </trkpt>
      <trkpt lat="43.76242" lon="4.23608">
        <ele>74</ele>
        <time>2017-11-03T14:53:22 01:00</time>
      </trkpt>
      <trkpt lat="43.76253" lon="4.23573">
        <ele>75</ele>
        <time>2017-11-03T14:53:28 01:00</time>
      </trkpt>
      <trkpt lat="43.76263" lon="4.23543">
        <ele>75</ele>
        <time>2017-11-03T14:53:33 01:00</time>
      </trkpt>
      <trkpt lat="43.76272" lon="4.23514">
        <ele>74</ele>
        <time>2017-11-03T14:53:37 01:00</time>
      </trkpt>
      <trkpt lat="43.76283" lon="4.23485">
        <ele>74</ele>
        <time>2017-11-03T14:53:41 01:00</time>
      </trkpt>
      <trkpt lat="43.76295" lon="4.23455">
        <ele>74</ele>
        <time>2017-11-03T14:53:45 01:00</time>
      </trkpt>
      <trkpt lat="43.76308" lon="4.23427">
        <ele>75</ele>
        <time>2017-11-03T14:53:49 01:00</time>
      </trkpt>
      <trkpt lat="43.76324" lon="4.23398">
        <ele>75</ele>
        <time>2017-11-03T14:53:54 01:00</time>
      </trkpt>
      <trkpt lat="43.76337" lon="4.23372">
        <ele>76</ele>
        <time>2017-11-03T14:53:59 01:00</time>
      </trkpt>
      <trkpt lat="43.76353" lon="4.23394">
        <ele>77</ele>
        <time>2017-11-03T14:54:29 01:00</time>
      </trkpt>
      <trkpt lat="43.76371" lon="4.23416">
        <ele>77</ele>
        <time>2017-11-03T14:54:54 01:00</time>
      </trkpt>
      <trkpt lat="43.76394" lon="4.23413">
        <ele>78</ele>
        <time>2017-11-03T14:55:05 01:00</time>
      </trkpt>
      <trkpt lat="43.76413" lon="4.23397">
        <ele>78</ele>
        <time>2017-11-03T14:55:12 01:00</time>
      </trkpt>
      <trkpt lat="43.76436" lon="4.2338">
        <ele>80</ele>
        <time>2017-11-03T14:55:19 01:00</time>
      </trkpt>
      <trkpt lat="43.76459" lon="4.23368">
        <ele>80</ele>
        <time>2017-11-03T14:55:25 01:00</time>
      </trkpt>
      <trkpt lat="43.76478" lon="4.2335">
        <ele>80</ele>
        <time>2017-11-03T14:55:31 01:00</time>
      </trkpt>
      <trkpt lat="43.76503" lon="4.23338">
        <ele>81</ele>
        <time>2017-11-03T14:55:38 01:00</time>
      </trkpt>
      <trkpt lat="43.76527" lon="4.23331">
        <ele>82</ele>
        <time>2017-11-03T14:55:45 01:00</time>
      </trkpt>
      <trkpt lat="43.76546" lon="4.2331">
        <ele>82</ele>
        <time>2017-11-03T14:55:52 01:00</time>
      </trkpt>
      <trkpt lat="43.76568" lon="4.23293">
        <ele>82</ele>
        <time>2017-11-03T14:55:58 01:00</time>
      </trkpt>
      <trkpt lat="43.76594" lon="4.23287">
        <ele>85</ele>
        <time>2017-11-03T14:56:05 01:00</time>
      </trkpt>
      <trkpt lat="43.76618" lon="4.23293">
        <ele>85</ele>
        <time>2017-11-03T14:56:13 01:00</time>
      </trkpt>
      <trkpt lat="43.7664" lon="4.23305">
        <ele>86</ele>
        <time>2017-11-03T14:56:22 01:00</time>
      </trkpt>
      <trkpt lat="43.76662" lon="4.2332">
        <ele>86</ele>
        <time>2017-11-03T14:56:50 01:00</time>
      </trkpt>
      <trkpt lat="43.76682" lon="4.23339">
        <ele>88</ele>
        <time>2017-11-03T14:57:01 01:00</time>
      </trkpt>
      <trkpt lat="43.76706" lon="4.23343">
        <ele>89</ele>
        <time>2017-11-03T14:57:14 01:00</time>
      </trkpt>
      <trkpt lat="43.76729" lon="4.2335">
        <ele>90</ele>
        <time>2017-11-03T14:57:23 01:00</time>
      </trkpt>
      <trkpt lat="43.76745" lon="4.23375">
        <ele>90</ele>
        <time>2017-11-03T14:57:30 01:00</time>
      </trkpt>
      <trkpt lat="43.76761" lon="4.234">
        <ele>91</ele>
        <time>2017-11-03T14:57:52 01:00</time>
      </trkpt>
      <trkpt lat="43.76776" lon="4.23426">
        <ele>90</ele>
        <time>2017-11-03T14:57:59 01:00</time>
      </trkpt>
      <trkpt lat="43.76791" lon="4.23454">
        <ele>90</ele>
        <time>2017-11-03T14:58:05 01:00</time>
      </trkpt>
      <trkpt lat="43.76804" lon="4.23484">
        <ele>90</ele>
        <time>2017-11-03T14:58:10 01:00</time>
      </trkpt>
      <trkpt lat="43.76821" lon="4.23513">
        <ele>89</ele>
        <time>2017-11-03T14:58:15 01:00</time>
      </trkpt>
      <trkpt lat="43.76835" lon="4.23539">
        <ele>89</ele>
        <time>2017-11-03T14:58:19 01:00</time>
      </trkpt>
      <trkpt lat="43.7685" lon="4.23565">
        <ele>89</ele>
        <time>2017-11-03T14:58:23 01:00</time>
      </trkpt>
      <trkpt lat="43.7687" lon="4.23591">
        <ele>88</ele>
        <time>2017-11-03T14:58:27 01:00</time>
      </trkpt>
      <trkpt lat="43.76886" lon="4.2362">
        <ele>87</ele>
        <time>2017-11-03T14:58:31 01:00</time>
      </trkpt>
      <trkpt lat="43.76899" lon="4.23647">
        <ele>86</ele>
        <time>2017-11-03T14:58:35 01:00</time>
      </trkpt>
      <trkpt lat="43.76903" lon="4.23684">
        <ele>84</ele>
        <time>2017-11-03T14:58:40 01:00</time>
      </trkpt>
      <trkpt lat="43.76911" lon="4.23714">
        <ele>83</ele>
        <time>2017-11-03T14:58:44 01:00</time>
      </trkpt>
      <trkpt lat="43.76922" lon="4.23745">
        <ele>82</ele>
        <time>2017-11-03T14:58:49 01:00</time>
      </trkpt>
      <trkpt lat="43.76942" lon="4.2377">
        <ele>80</ele>
        <time>2017-11-03T14:58:55 01:00</time>
      </trkpt>
      <trkpt lat="43.76956" lon="4.23795">
        <ele>79</ele>
        <time>2017-11-03T14:59:00 01:00</time>
      </trkpt>
      <trkpt lat="43.7697" lon="4.23828">
        <ele>79</ele>
        <time>2017-11-03T14:59:05 01:00</time>
      </trkpt>
      <trkpt lat="43.76985" lon="4.23857">
        <ele>76</ele>
        <time>2017-11-03T14:59:09 01:00</time>
      </trkpt>
      <trkpt lat="43.77001" lon="4.23888">
        <ele>74</ele>
        <time>2017-11-03T14:59:13 01:00</time>
      </trkpt>
      <trkpt lat="43.77021" lon="4.23918">
        <ele>72</ele>
        <time>2017-11-03T14:59:17 01:00</time>
      </trkpt>
      <trkpt lat="43.77034" lon="4.23951">
        <ele>71</ele>
        <time>2017-11-03T14:59:21 01:00</time>
      </trkpt>
      <trkpt lat="43.7704" lon="4.23981">
        <ele>71</ele>
        <time>2017-11-03T14:59:26 01:00</time>
      </trkpt>
      <trkpt lat="43.77046" lon="4.24015">
        <ele>71</ele>
        <time>2017-11-03T14:59:33 01:00</time>
      </trkpt>
      <trkpt lat="43.77051" lon="4.24046">
        <ele>71</ele>
        <time>2017-11-03T15:00:11 01:00</time>
      </trkpt>
      <trkpt lat="43.77041" lon="4.24078">
        <ele>71</ele>
        <time>2017-11-03T15:00:19 01:00</time>
      </trkpt>
      <trkpt lat="43.77027" lon="4.2411">
        <ele>71</ele>
        <time>2017-11-03T15:00:25 01:00</time>
      </trkpt>
      <trkpt lat="43.77044" lon="4.24132">
        <ele>72</ele>
        <time>2017-11-03T15:00:31 01:00</time>
      </trkpt>
      <trkpt lat="43.77068" lon="4.24145">
        <ele>72</ele>
        <time>2017-11-03T15:00:38 01:00</time>
      </trkpt>
      <trkpt lat="43.77089" lon="4.24158">
        <ele>75</ele>
        <time>2017-11-03T15:00:46 01:00</time>
      </trkpt>
      <trkpt lat="43.77111" lon="4.24173">
        <ele>77</ele>
        <time>2017-11-03T15:00:54 01:00</time>
      </trkpt>
      <trkpt lat="43.77131" lon="4.24188">
        <ele>79</ele>
        <time>2017-11-03T15:01:02 01:00</time>
      </trkpt>
      <trkpt lat="43.77153" lon="4.24204">
        <ele>79</ele>
        <time>2017-11-03T15:01:11 01:00</time>
      </trkpt>
      <trkpt lat="43.77173" lon="4.24218">
        <ele>82</ele>
        <time>2017-11-03T15:01:19 01:00</time>
      </trkpt>
      <trkpt lat="43.77196" lon="4.24235">
        <ele>82</ele>
        <time>2017-11-03T15:01:28 01:00</time>
      </trkpt>
      <trkpt lat="43.77216" lon="4.24247">
        <ele>82</ele>
        <time>2017-11-03T15:01:35 01:00</time>
      </trkpt>
      <trkpt lat="43.7724" lon="4.24259">
        <ele>81</ele>
        <time>2017-11-03T15:01:42 01:00</time>
      </trkpt>
      <trkpt lat="43.77218" lon="4.24247">
        <ele>82</ele>
        <time>2017-11-03T15:02:13 01:00</time>
      </trkpt>
      <trkpt lat="43.77222" lon="4.24216">
        <ele>83</ele>
        <time>2017-11-03T15:02:27 01:00</time>
      </trkpt>
      <trkpt lat="43.77238" lon="4.24191">
        <ele>83</ele>
        <time>2017-11-03T15:02:39 01:00</time>
      </trkpt>
      <trkpt lat="43.77251" lon="4.24165">
        <ele>85</ele>
        <time>2017-11-03T15:02:51 01:00</time>
      </trkpt>
      <trkpt lat="43.77265" lon="4.24141">
        <ele>87</ele>
        <time>2017-11-03T15:03:02 01:00</time>
      </trkpt>
      <trkpt lat="43.77281" lon="4.24114">
        <ele>88</ele>
        <time>2017-11-03T15:03:14 01:00</time>
      </trkpt>
      <trkpt lat="43.77301" lon="4.24097">
        <ele>89</ele>
        <time>2017-11-03T15:03:25 01:00</time>
      </trkpt>
      <trkpt lat="43.77321" lon="4.24079">
        <ele>90</ele>
        <time>2017-11-03T15:03:37 01:00</time>
      </trkpt>
      <trkpt lat="43.77342" lon="4.24064">
        <ele>91</ele>
        <time>2017-11-03T15:03:47 01:00</time>
      </trkpt>
      <trkpt lat="43.77365" lon="4.24054">
        <ele>91</ele>
        <time>2017-11-03T15:03:57 01:00</time>
      </trkpt>
      <trkpt lat="43.77387" lon="4.24045">
        <ele>92</ele>
        <time>2017-11-03T15:04:06 01:00</time>
      </trkpt>
      <trkpt lat="43.77411" lon="4.24051">
        <ele>92</ele>
        <time>2017-11-03T15:04:14 01:00</time>
      </trkpt>
      <trkpt lat="43.7743" lon="4.24068">
        <ele>93</ele>
        <time>2017-11-03T15:04:21 01:00</time>
      </trkpt>
      <trkpt lat="43.7745" lon="4.24084">
        <ele>95</ele>
        <time>2017-11-03T15:04:27 01:00</time>
      </trkpt>
      <trkpt lat="43.77472" lon="4.24087">
        <ele>95</ele>
        <time>2017-11-03T15:04:33 01:00</time>
      </trkpt>
      <trkpt lat="43.77498" lon="4.24088">
        <ele>95</ele>
        <time>2017-11-03T15:04:40 01:00</time>
      </trkpt>
      <trkpt lat="43.77519" lon="4.24072">
        <ele>91</ele>
        <time>2017-11-03T15:04:52 01:00</time>
      </trkpt>
      <trkpt lat="43.77539" lon="4.24053">
        <ele>89</ele>
        <time>2017-11-03T15:05:02 01:00</time>
      </trkpt>
      <trkpt lat="43.77562" lon="4.24064">
        <ele>90</ele>
        <time>2017-11-03T15:05:11 01:00</time>
      </trkpt>
      <trkpt lat="43.77585" lon="4.24074">
        <ele>89</ele>
        <time>2017-11-03T15:05:18 01:00</time>
      </trkpt>
      <trkpt lat="43.77604" lon="4.2409">
        <ele>91</ele>
        <time>2017-11-03T15:05:25 01:00</time>
      </trkpt>
      <trkpt lat="43.77623" lon="4.2411">
        <ele>91</ele>
        <time>2017-11-03T15:05:34 01:00</time>
      </trkpt>
      <trkpt lat="43.77644" lon="4.24126">
        <ele>90</ele>
        <time>2017-11-03T15:05:41 01:00</time>
      </trkpt>
      <trkpt lat="43.77668" lon="4.2414">
        <ele>85</ele>
        <time>2017-11-03T15:05:47 01:00</time>
      </trkpt>
      <trkpt lat="43.77688" lon="4.24156">
        <ele>85</ele>
        <time>2017-11-03T15:05:53 01:00</time>
      </trkpt>
      <trkpt lat="43.77708" lon="4.24171">
        <ele>88</ele>
        <time>2017-11-03T15:05:59 01:00</time>
      </trkpt>
      <trkpt lat="43.7773" lon="4.24183">
        <ele>87</ele>
        <time>2017-11-03T15:06:04 01:00</time>
      </trkpt>
      <trkpt lat="43.77745" lon="4.24205">
        <ele>88</ele>
        <time>2017-11-03T15:06:10 01:00</time>
      </trkpt>
      <trkpt lat="43.77766" lon="4.2422">
        <ele>83</ele>
        <time>2017-11-03T15:06:16 01:00</time>
      </trkpt>
      <trkpt lat="43.77789" lon="4.24233">
        <ele>83</ele>
        <time>2017-11-03T15:06:25 01:00</time>
      </trkpt>
      <trkpt lat="43.77813" lon="4.2423">
        <ele>82</ele>
        <time>2017-11-03T15:06:31 01:00</time>
      </trkpt>
      <trkpt lat="43.77833" lon="4.2425">
        <ele>85</ele>
        <time>2017-11-03T15:06:41 01:00</time>
      </trkpt>
      <trkpt lat="43.77851" lon="4.2427">
        <ele>86</ele>
        <time>2017-11-03T15:06:52 01:00</time>
      </trkpt>
      <trkpt lat="43.77871" lon="4.24292">
        <ele>86</ele>
        <time>2017-11-03T15:07:07 01:00</time>
      </trkpt>
      <trkpt lat="43.77891" lon="4.24307">
        <ele>87</ele>
        <time>2017-11-03T15:07:15 01:00</time>
      </trkpt>
      <trkpt lat="43.77911" lon="4.24322">
        <ele>89</ele>
        <time>2017-11-03T15:07:23 01:00</time>
      </trkpt>
      <trkpt lat="43.77932" lon="4.24338">
        <ele>91</ele>
        <time>2017-11-03T15:07:33 01:00</time>
      </trkpt>
      <trkpt lat="43.77953" lon="4.24352">
        <ele>92</ele>
        <time>2017-11-03T15:07:43 01:00</time>
      </trkpt>
      <trkpt lat="43.77975" lon="4.24367">
        <ele>92</ele>
        <time>2017-11-03T15:07:52 01:00</time>
      </trkpt>
      <trkpt lat="43.77997" lon="4.24383">
        <ele>93</ele>
        <time>2017-11-03T15:08:00 01:00</time>
      </trkpt>
      <trkpt lat="43.78017" lon="4.24399">
        <ele>90</ele>
        <time>2017-11-03T15:08:07 01:00</time>
      </trkpt>
      <trkpt lat="43.78039" lon="4.24414">
        <ele>89</ele>
        <time>2017-11-03T15:08:13 01:00</time>
      </trkpt>
      <trkpt lat="43.78062" lon="4.2443">
        <ele>93</ele>
        <time>2017-11-03T15:08:20 01:00</time>
      </trkpt>
      <trkpt lat="43.78084" lon="4.24445">
        <ele>88</ele>
        <time>2017-11-03T15:08:28 01:00</time>
      </trkpt>
      <trkpt lat="43.78105" lon="4.2446">
        <ele>89</ele>
        <time>2017-11-03T15:08:34 01:00</time>
      </trkpt>
      <trkpt lat="43.78127" lon="4.24476">
        <ele>89</ele>
        <time>2017-11-03T15:08:40 01:00</time>
      </trkpt>
      <trkpt lat="43.7815" lon="4.2449">
        <ele>89</ele>
        <time>2017-11-03T15:08:46 01:00</time>
      </trkpt>
      <trkpt lat="43.78171" lon="4.24504">
        <ele>91</ele>
        <time>2017-11-03T15:08:51 01:00</time>
      </trkpt>
      <trkpt lat="43.78194" lon="4.2451">
        <ele>91</ele>
        <time>2017-11-03T15:09:14 01:00</time>
      </trkpt>
      <trkpt lat="43.78209" lon="4.24485">
        <ele>83</ele>
        <time>2017-11-03T15:09:28 01:00</time>
      </trkpt>
      <trkpt lat="43.7823" lon="4.2447">
        <ele>82</ele>
        <time>2017-11-03T15:11:00 01:00</time>
      </trkpt>
      <trkpt lat="43.78253" lon="4.2447">
        <ele>81</ele>
        <time>2017-11-03T15:11:09 01:00</time>
      </trkpt>
      <trkpt lat="43.78275" lon="4.24473">
        <ele>81</ele>
        <time>2017-11-03T15:11:16 01:00</time>
      </trkpt>
      <trkpt lat="43.783" lon="4.24475">
        <ele>81</ele>
        <time>2017-11-03T15:11:23 01:00</time>
      </trkpt>
      <trkpt lat="43.78323" lon="4.24476">
        <ele>82</ele>
        <time>2017-11-03T15:11:55 01:00</time>
      </trkpt>
      <trkpt lat="43.78343" lon="4.24494">
        <ele>86</ele>
        <time>2017-11-03T15:12:06 01:00</time>
      </trkpt>
      <trkpt lat="43.78331" lon="4.2452">
        <ele>89</ele>
        <time>2017-11-03T15:12:58 01:00</time>
      </trkpt>
      <trkpt lat="43.78314" lon="4.24542">
        <ele>90</ele>
        <time>2017-11-03T15:13:33 01:00</time>
      </trkpt>
      <trkpt lat="43.78299" lon="4.24566">
        <ele>92</ele>
        <time>2017-11-03T15:13:46 01:00</time>
      </trkpt>
      <trkpt lat="43.78292" lon="4.24596">
        <ele>97</ele>
        <time>2017-11-03T15:14:19 01:00</time>
      </trkpt>
      <trkpt lat="43.7831" lon="4.24618">
        <ele>98</ele>
        <time>2017-11-03T15:15:37 01:00</time>
      </trkpt>
      <trkpt lat="43.78333" lon="4.24627">
        <ele>99</ele>
        <time>2017-11-03T15:15:47 01:00</time>
      </trkpt>
      <trkpt lat="43.78342" lon="4.24658">
        <ele>102</ele>
        <time>2017-11-03T15:17:50 01:00</time>
      </trkpt>
      <trkpt lat="43.78336" lon="4.24689">
        <ele>103</ele>
        <time>2017-11-03T15:18:04 01:00</time>
      </trkpt>
      <trkpt lat="43.78325" lon="4.24717">
        <ele>102</ele>
        <time>2017-11-03T15:18:20 01:00</time>
      </trkpt>
      <trkpt lat="43.78311" lon="4.24742">
        <ele>102</ele>
        <time>2017-11-03T15:18:30 01:00</time>
      </trkpt>
      <trkpt lat="43.78321" lon="4.2477">
        <ele>101</ele>
        <time>2017-11-03T15:18:43 01:00</time>
      </trkpt>
      <trkpt lat="43.78314" lon="4.24801">
        <ele>100</ele>
        <time>2017-11-03T15:19:07 01:00</time>
      </trkpt>
      <trkpt lat="43.78297" lon="4.2482">
        <ele>99</ele>
        <time>2017-11-03T15:19:23 01:00</time>
      </trkpt>
      <trkpt lat="43.78308" lon="4.2485">
        <ele>97</ele>
        <time>2017-11-03T15:19:34 01:00</time>
      </trkpt>
      <trkpt lat="43.78328" lon="4.24834">
        <ele>99</ele>
        <time>2017-11-03T15:19:48 01:00</time>
      </trkpt>
      <trkpt lat="43.7834" lon="4.24807">
        <ele>101</ele>
        <time>2017-11-03T15:19:57 01:00</time>
      </trkpt>
      <trkpt lat="43.78353" lon="4.24782">
        <ele>102</ele>
        <time>2017-11-03T15:20:06 01:00</time>
      </trkpt>
      <trkpt lat="43.78368" lon="4.24758">
        <ele>102</ele>
        <time>2017-11-03T15:20:15 01:00</time>
      </trkpt>
      <trkpt lat="43.78384" lon="4.24736">
        <ele>103</ele>
        <time>2017-11-03T15:20:24 01:00</time>
      </trkpt>
      <trkpt lat="43.78402" lon="4.24715">
        <ele>103</ele>
        <time>2017-11-03T15:20:36 01:00</time>
      </trkpt>
      <trkpt lat="43.78421" lon="4.24692">
        <ele>102</ele>
        <time>2017-11-03T15:20:56 01:00</time>
      </trkpt>
      <trkpt lat="43.7844" lon="4.24664">
        <ele>102</ele>
        <time>2017-11-03T15:21:01 01:00</time>
      </trkpt>
      <trkpt lat="43.78461" lon="4.24641">
        <ele>102</ele>
        <time>2017-11-03T15:21:05 01:00</time>
      </trkpt>
      <trkpt lat="43.78486" lon="4.24627">
        <ele>102</ele>
        <time>2017-11-03T15:21:10 01:00</time>
      </trkpt>
      <trkpt lat="43.78511" lon="4.24614">
        <ele>102</ele>
        <time>2017-11-03T15:21:16 01:00</time>
      </trkpt>
      <trkpt lat="43.78536" lon="4.246">
        <ele>102</ele>
        <time>2017-11-03T15:21:21 01:00</time>
      </trkpt>
      <trkpt lat="43.78559" lon="4.2459">
        <ele>102</ele>
        <time>2017-11-03T15:21:25 01:00</time>
      </trkpt>
      <trkpt lat="43.78583" lon="4.2458">
        <ele>103</ele>
        <time>2017-11-03T15:21:29 01:00</time>
      </trkpt>
      <trkpt lat="43.78606" lon="4.24568">
        <ele>103</ele>
        <time>2017-11-03T15:21:33 01:00</time>
      </trkpt>
      <trkpt lat="43.78627" lon="4.24556">
        <ele>104</ele>
        <time>2017-11-03T15:21:37 01:00</time>
      </trkpt>
      <trkpt lat="43.78652" lon="4.2454">
        <ele>104</ele>
        <time>2017-11-03T15:21:42 01:00</time>
      </trkpt>
      <trkpt lat="43.78673" lon="4.24528">
        <ele>103</ele>
        <time>2017-11-03T15:21:47 01:00</time>
      </trkpt>
      <trkpt lat="43.78696" lon="4.24516">
        <ele>103</ele>
        <time>2017-11-03T15:21:53 01:00</time>
      </trkpt>
      <trkpt lat="43.78721" lon="4.24506">
        <ele>103</ele>
        <time>2017-11-03T15:22:00 01:00</time>
      </trkpt>
      <trkpt lat="43.78738" lon="4.24529">
        <ele>103</ele>
        <time>2017-11-03T15:22:27 01:00</time>
      </trkpt>
      <trkpt lat="43.78743" lon="4.24563">
        <ele>102</ele>
        <time>2017-11-03T15:22:36 01:00</time>
      </trkpt>
      <trkpt lat="43.78743" lon="4.24594">
        <ele>100</ele>
        <time>2017-11-03T15:22:46 01:00</time>
      </trkpt>
      <trkpt lat="43.78735" lon="4.24623">
        <ele>99</ele>
        <time>2017-11-03T15:22:52 01:00</time>
      </trkpt>
      <trkpt lat="43.78717" lon="4.24641">
        <ele>99</ele>
        <time>2017-11-03T15:22:59 01:00</time>
      </trkpt>
      <trkpt lat="43.78701" lon="4.24665">
        <ele>98</ele>
        <time>2017-11-03T15:23:08 01:00</time>
      </trkpt>
      <trkpt lat="43.78685" lon="4.24691">
        <ele>96</ele>
        <time>2017-11-03T15:23:17 01:00</time>
      </trkpt>
      <trkpt lat="43.7867" lon="4.24717">
        <ele>96</ele>
        <time>2017-11-03T15:23:25 01:00</time>
      </trkpt>
      <trkpt lat="43.78686" lon="4.2474">
        <ele>96</ele>
        <time>2017-11-03T15:23:41 01:00</time>
      </trkpt>
      <trkpt lat="43.78706" lon="4.24721">
        <ele>96</ele>
        <time>2017-11-03T15:24:42 01:00</time>
      </trkpt>
      <trkpt lat="43.78724" lon="4.24697">
        <ele>97</ele>
        <time>2017-11-03T15:24:51 01:00</time>
      </trkpt>
      <trkpt lat="43.78743" lon="4.24678">
        <ele>97</ele>
        <time>2017-11-03T15:25:04 01:00</time>
      </trkpt>
      <trkpt lat="43.78762" lon="4.24657">
        <ele>99</ele>
        <time>2017-11-03T15:25:34 01:00</time>
      </trkpt>
      <trkpt lat="43.78778" lon="4.24635">
        <ele>100</ele>
        <time>2017-11-03T15:25:41 01:00</time>
      </trkpt>
      <trkpt lat="43.78799" lon="4.24615">
        <ele>100</ele>
        <time>2017-11-03T15:25:48 01:00</time>
      </trkpt>
      <trkpt lat="43.78818" lon="4.24598">
        <ele>100</ele>
        <time>2017-11-03T15:25:56 01:00</time>
      </trkpt>
      <trkpt lat="43.78835" lon="4.24575">
        <ele>100</ele>
        <time>2017-11-03T15:26:04 01:00</time>
      </trkpt>
      <trkpt lat="43.78856" lon="4.24588">
        <ele>100</ele>
        <time>2017-11-03T15:26:14 01:00</time>
      </trkpt>
      <trkpt lat="43.78879" lon="4.24589">
        <ele>101</ele>
        <time>2017-11-03T15:26:22 01:00</time>
      </trkpt>
      <trkpt lat="43.78904" lon="4.24593">
        <ele>101</ele>
        <time>2017-11-03T15:26:31 01:00</time>
      </trkpt>
      <trkpt lat="43.78927" lon="4.24594">
        <ele>103</ele>
        <time>2017-11-03T15:26:40 01:00</time>
      </trkpt>
      <trkpt lat="43.78951" lon="4.24588">
        <ele>104</ele>
        <time>2017-11-03T15:26:53 01:00</time>
      </trkpt>
      <trkpt lat="43.78973" lon="4.24599">
        <ele>105</ele>
        <time>2017-11-03T15:27:08 01:00</time>
      </trkpt>
      <trkpt lat="43.78975" lon="4.24632">
        <ele>105</ele>
        <time>2017-11-03T15:27:22 01:00</time>
      </trkpt>
      <trkpt lat="43.78961" lon="4.24658">
        <ele>105</ele>
        <time>2017-11-03T15:27:35 01:00</time>
      </trkpt>
      <trkpt lat="43.78954" lon="4.24688">
        <ele>105</ele>
        <time>2017-11-03T15:28:24 01:00</time>
      </trkpt>
      <trkpt lat="43.78971" lon="4.24709">
        <ele>105</ele>
        <time>2017-11-03T15:28:47 01:00</time>
      </trkpt>
      <trkpt lat="43.78971" lon="4.24741">
        <ele>105</ele>
        <time>2017-11-03T15:28:57 01:00</time>
      </trkpt>
      <trkpt lat="43.78962" lon="4.24773">
        <ele>103</ele>
        <time>2017-11-03T15:29:13 01:00</time>
      </trkpt>
      <trkpt lat="43.78949" lon="4.248">
        <ele>102</ele>
        <time>2017-11-03T15:29:20 01:00</time>
      </trkpt>
      <trkpt lat="43.78945" lon="4.24832">
        <ele>101</ele>
        <time>2017-11-03T15:29:30 01:00</time>
      </trkpt>
      <trkpt lat="43.78928" lon="4.24855">
        <ele>99</ele>
        <time>2017-11-03T15:29:46 01:00</time>
      </trkpt>
      <trkpt lat="43.78905" lon="4.2485">
        <ele>97</ele>
        <time>2017-11-03T15:29:54 01:00</time>
      </trkpt>
      <trkpt lat="43.78883" lon="4.24843">
        <ele>97</ele>
        <time>2017-11-03T15:30:01 01:00</time>
      </trkpt>
      <trkpt lat="43.7886" lon="4.24836">
        <ele>97</ele>
        <time>2017-11-03T15:30:24 01:00</time>
      </trkpt>
      <trkpt lat="43.78843" lon="4.24859">
        <ele>97</ele>
        <time>2017-11-03T15:30:56 01:00</time>
      </trkpt>
      <trkpt lat="43.78839" lon="4.24894">
        <ele>97</ele>
        <time>2017-11-03T15:31:03 01:00</time>
      </trkpt>
      <trkpt lat="43.78838" lon="4.24925">
        <ele>97</ele>
        <time>2017-11-03T15:31:11 01:00</time>
      </trkpt>
      <trkpt lat="43.78838" lon="4.24957">
        <ele>98</ele>
        <time>2017-11-03T15:31:22 01:00</time>
      </trkpt>
      <trkpt lat="43.78833" lon="4.24989">
        <ele>98</ele>
        <time>2017-11-03T15:31:33 01:00</time>
      </trkpt>
      <trkpt lat="43.78826" lon="4.25024">
        <ele>98</ele>
        <time>2017-11-03T15:31:42 01:00</time>
      </trkpt>
      <trkpt lat="43.78819" lon="4.25054">
        <ele>98</ele>
        <time>2017-11-03T15:31:47 01:00</time>
      </trkpt>
      <trkpt lat="43.78814" lon="4.25089">
        <ele>98</ele>
        <time>2017-11-03T15:31:52 01:00</time>
      </trkpt>
      <trkpt lat="43.78809" lon="4.2512">
        <ele>97</ele>
        <time>2017-11-03T15:31:56 01:00</time>
      </trkpt>
      <trkpt lat="43.78795" lon="4.2515">
        <ele>97</ele>
        <time>2017-11-03T15:32:01 01:00</time>
      </trkpt>
      <trkpt lat="43.7878" lon="4.25174">
        <ele>96</ele>
        <time>2017-11-03T15:32:06 01:00</time>
      </trkpt>
      <trkpt lat="43.78778" lon="4.25208">
        <ele>96</ele>
        <time>2017-11-03T15:32:12 01:00</time>
      </trkpt>
      <trkpt lat="43.78783" lon="4.2524">
        <ele>97</ele>
        <time>2017-11-03T15:32:19 01:00</time>
      </trkpt>
      <trkpt lat="43.78787" lon="4.25275">
        <ele>96</ele>
        <time>2017-11-03T15:32:42 01:00</time>
      </trkpt>
      <trkpt lat="43.78793" lon="4.25311">
        <ele>95</ele>
        <time>2017-11-03T15:32:48 01:00</time>
      </trkpt>
      <trkpt lat="43.78801" lon="4.25343">
        <ele>92</ele>
        <time>2017-11-03T15:32:54 01:00</time>
      </trkpt>
      <trkpt lat="43.78826" lon="4.25335">
        <ele>94</ele>
        <time>2017-11-03T15:33:01 01:00</time>
      </trkpt>
      <trkpt lat="43.7885" lon="4.25323">
        <ele>96</ele>
        <time>2017-11-03T15:33:07 01:00</time>
      </trkpt>
      <trkpt lat="43.78874" lon="4.25312">
        <ele>96</ele>
        <time>2017-11-03T15:33:13 01:00</time>
      </trkpt>
      <trkpt lat="43.78898" lon="4.25298">
        <ele>96</ele>
        <time>2017-11-03T15:33:20 01:00</time>
      </trkpt>
      <trkpt lat="43.78921" lon="4.25285">
        <ele>97</ele>
        <time>2017-11-03T15:33:29 01:00</time>
      </trkpt>
      <trkpt lat="43.78945" lon="4.25277">
        <ele>97</ele>
        <time>2017-11-03T15:33:39 01:00</time>
      </trkpt>
      <trkpt lat="43.78969" lon="4.25268">
        <ele>98</ele>
        <time>2017-11-03T15:33:48 01:00</time>
      </trkpt>
      <trkpt lat="43.78985" lon="4.25246">
        <ele>102</ele>
        <time>2017-11-03T15:33:57 01:00</time>
      </trkpt>
      <trkpt lat="43.78994" lon="4.25216">
        <ele>103</ele>
        <time>2017-11-03T15:34:11 01:00</time>
      </trkpt>
      <trkpt lat="43.79003" lon="4.25185">
        <ele>103</ele>
        <time>2017-11-03T15:34:52 01:00</time>
      </trkpt>
      <trkpt lat="43.79019" lon="4.25161">
        <ele>105</ele>
        <time>2017-11-03T15:35:01 01:00</time>
      </trkpt>
      <trkpt lat="43.79035" lon="4.25137">
        <ele>105</ele>
        <time>2017-11-03T15:35:08 01:00</time>
      </trkpt>
      <trkpt lat="43.79053" lon="4.25113">
        <ele>105</ele>
        <time>2017-11-03T15:35:16 01:00</time>
      </trkpt>
      <trkpt lat="43.79069" lon="4.25091">
        <ele>106</ele>
        <time>2017-11-03T15:35:23 01:00</time>
      </trkpt>
      <trkpt lat="43.79083" lon="4.25062">
        <ele>107</ele>
        <time>2017-11-03T15:35:29 01:00</time>
      </trkpt>
      <trkpt lat="43.79095" lon="4.25035">
        <ele>109</ele>
        <time>2017-11-03T15:35:35 01:00</time>
      </trkpt>
      <trkpt lat="43.7911" lon="4.2501">
        <ele>109</ele>
        <time>2017-11-03T15:35:43 01:00</time>
      </trkpt>
      <trkpt lat="43.79121" lon="4.24979">
        <ele>110</ele>
        <time>2017-11-03T15:35:52 01:00</time>
      </trkpt>
      <trkpt lat="43.79134" lon="4.24952">
        <ele>111</ele>
        <time>2017-11-03T15:35:59 01:00</time>
      </trkpt>
      <trkpt lat="43.7915" lon="4.24922">
        <ele>112</ele>
        <time>2017-11-03T15:36:05 01:00</time>
      </trkpt>
      <trkpt lat="43.79166" lon="4.24895">
        <ele>111</ele>
        <time>2017-11-03T15:36:10 01:00</time>
      </trkpt>
      <trkpt lat="43.79184" lon="4.24872">
        <ele>114</ele>
        <time>2017-11-03T15:36:15 01:00</time>
      </trkpt>
      <trkpt lat="43.79197" lon="4.24839">
        <ele>114</ele>
        <time>2017-11-03T15:36:21 01:00</time>
      </trkpt>
      <trkpt lat="43.7921" lon="4.2481">
        <ele>113</ele>
        <time>2017-11-03T15:36:26 01:00</time>
      </trkpt>
      <trkpt lat="43.79228" lon="4.24789">
        <ele>113</ele>
        <time>2017-11-03T15:36:31 01:00</time>
      </trkpt>
      <trkpt lat="43.79247" lon="4.24766">
        <ele>114</ele>
        <time>2017-11-03T15:36:37 01:00</time>
      </trkpt>
      <trkpt lat="43.79265" lon="4.24741">
        <ele>115</ele>
        <time>2017-11-03T15:36:43 01:00</time>
      </trkpt>
      <trkpt lat="43.79281" lon="4.24717">
        <ele>115</ele>
        <time>2017-11-03T15:36:48 01:00</time>
      </trkpt>
      <trkpt lat="43.79297" lon="4.24692">
        <ele>116</ele>
        <time>2017-11-03T15:36:53 01:00</time>
      </trkpt>
      <trkpt lat="43.79311" lon="4.24662">
        <ele>115</ele>
        <time>2017-11-03T15:37:00 01:00</time>
      </trkpt>
      <trkpt lat="43.79323" lon="4.24632">
        <ele>114</ele>
        <time>2017-11-03T15:37:07 01:00</time>
      </trkpt>
      <trkpt lat="43.79337" lon="4.24603">
        <ele>118</ele>
        <time>2017-11-03T15:37:15 01:00</time>
      </trkpt>
      <trkpt lat="43.7935" lon="4.24577">
        <ele>116</ele>
        <time>2017-11-03T15:37:21 01:00</time>
      </trkpt>
      <trkpt lat="43.79364" lon="4.24547">
        <ele>117</ele>
        <time>2017-11-03T15:37:27 01:00</time>
      </trkpt>
      <trkpt lat="43.79378" lon="4.2452">
        <ele>116</ele>
        <time>2017-11-03T15:37:32 01:00</time>
      </trkpt>
      <trkpt lat="43.79394" lon="4.24486">
        <ele>114</ele>
        <time>2017-11-03T15:37:37 01:00</time>
      </trkpt>
      <trkpt lat="43.79411" lon="4.24455">
        <ele>114</ele>
        <time>2017-11-03T15:37:41 01:00</time>
      </trkpt>
      <trkpt lat="43.79435" lon="4.24456">
        <ele>116</ele>
        <time>2017-11-03T15:37:50 01:00</time>
      </trkpt>
      <trkpt lat="43.79455" lon="4.24472">
        <ele>116</ele>
        <time>2017-11-03T15:37:57 01:00</time>
      </trkpt>
      <trkpt lat="43.79476" lon="4.24487">
        <ele>117</ele>
        <time>2017-11-03T15:38:04 01:00</time>
      </trkpt>
      <trkpt lat="43.79496" lon="4.24502">
        <ele>118</ele>
        <time>2017-11-03T15:38:11 01:00</time>
      </trkpt>
      <trkpt lat="43.79519" lon="4.24517">
        <ele>121</ele>
        <time>2017-11-03T15:38:19 01:00</time>
      </trkpt>
      <trkpt lat="43.7954" lon="4.24534">
        <ele>122</ele>
        <time>2017-11-03T15:38:27 01:00</time>
      </trkpt>
      <trkpt lat="43.79561" lon="4.24552">
        <ele>123</ele>
        <time>2017-11-03T15:38:36 01:00</time>
      </trkpt>
      <trkpt lat="43.79583" lon="4.24568">
        <ele>124</ele>
        <time>2017-11-03T15:38:45 01:00</time>
      </trkpt>
      <trkpt lat="43.79604" lon="4.24584">
        <ele>127</ele>
        <time>2017-11-03T15:38:55 01:00</time>
      </trkpt>
      <trkpt lat="43.79625" lon="4.24597">
        <ele>128</ele>
        <time>2017-11-03T15:39:04 01:00</time>
      </trkpt>
      <trkpt lat="43.79647" lon="4.24607">
        <ele>128</ele>
        <time>2017-11-03T15:39:13 01:00</time>
      </trkpt>
      <trkpt lat="43.79668" lon="4.24618">
        <ele>130</ele>
        <time>2017-11-03T15:39:21 01:00</time>
      </trkpt>
      <trkpt lat="43.79691" lon="4.24629">
        <ele>131</ele>
        <time>2017-11-03T15:39:30 01:00</time>
      </trkpt>
      <trkpt lat="43.79714" lon="4.24642">
        <ele>132</ele>
        <time>2017-11-03T15:39:39 01:00</time>
      </trkpt>
      <trkpt lat="43.79736" lon="4.24655">
        <ele>133</ele>
        <time>2017-11-03T15:39:48 01:00</time>
      </trkpt>
      <trkpt lat="43.79757" lon="4.24672">
        <ele>136</ele>
        <time>2017-11-03T15:39:57 01:00</time>
      </trkpt>
      <trkpt lat="43.79778" lon="4.24692">
        <ele>136</ele>
        <time>2017-11-03T15:40:06 01:00</time>
      </trkpt>
      <trkpt lat="43.798" lon="4.24711">
        <ele>137</ele>
        <time>2017-11-03T15:40:14 01:00</time>
      </trkpt>
      <trkpt lat="43.79822" lon="4.24729">
        <ele>137</ele>
        <time>2017-11-03T15:40:21 01:00</time>
      </trkpt>
      <trkpt lat="43.79845" lon="4.24742">
        <ele>137</ele>
        <time>2017-11-03T15:40:27 01:00</time>
      </trkpt>
      <trkpt lat="43.79867" lon="4.24758">
        <ele>135</ele>
        <time>2017-11-03T15:40:32 01:00</time>
      </trkpt>
      <trkpt lat="43.79856" lon="4.2473">
        <ele>136</ele>
        <time>2017-11-03T15:40:55 01:00</time>
      </trkpt>
      <trkpt lat="43.79873" lon="4.24752">
        <ele>135</ele>
        <time>2017-11-03T15:41:17 01:00</time>
      </trkpt>
      <trkpt lat="43.79897" lon="4.24763">
        <ele>134</ele>
        <time>2017-11-03T15:41:21 01:00</time>
      </trkpt>
      <trkpt lat="43.79915" lon="4.24784">
        <ele>134</ele>
        <time>2017-11-03T15:41:24 01:00</time>
      </trkpt>
      <trkpt lat="43.79935" lon="4.24801">
        <ele>127</ele>
        <time>2017-11-03T15:41:31 01:00</time>
      </trkpt>
      <trkpt lat="43.79916" lon="4.24783">
        <ele>134</ele>
        <time>2017-11-03T15:42:02 01:00</time>
      </trkpt>
      <trkpt lat="43.79926" lon="4.24752">
        <ele>131</ele>
        <time>2017-11-03T15:42:17 01:00</time>
      </trkpt>
      <trkpt lat="43.79943" lon="4.2473">
        <ele>131</ele>
        <time>2017-11-03T15:42:26 01:00</time>
      </trkpt>
      <trkpt lat="43.79952" lon="4.247">
        <ele>132</ele>
        <time>2017-11-03T15:42:36 01:00</time>
      </trkpt>
      <trkpt lat="43.79962" lon="4.24671">
        <ele>133</ele>
        <time>2017-11-03T15:42:46 01:00</time>
      </trkpt>
      <trkpt lat="43.79967" lon="4.24641">
        <ele>138</ele>
        <time>2017-11-03T15:43:23 01:00</time>
      </trkpt>
      <trkpt lat="43.79973" lon="4.2461">
        <ele>140</ele>
        <time>2017-11-03T15:43:53 01:00</time>
      </trkpt>
      <trkpt lat="43.79987" lon="4.24583">
        <ele>144</ele>
        <time>2017-11-03T15:45:19 01:00</time>
      </trkpt>
      <trkpt lat="43.80005" lon="4.24564">
        <ele>141</ele>
        <time>2017-11-03T15:45:47 01:00</time>
      </trkpt>
      <trkpt lat="43.80027" lon="4.24553">
        <ele>139</ele>
        <time>2017-11-03T15:46:00 01:00</time>
      </trkpt>
      <trkpt lat="43.8005" lon="4.24536">
        <ele>138</ele>
        <time>2017-11-03T15:46:09 01:00</time>
      </trkpt>
      <trkpt lat="43.80043" lon="4.24506">
        <ele>139</ele>
        <time>2017-11-03T15:46:42 01:00</time>
      </trkpt>
      <trkpt lat="43.80028" lon="4.24479">
        <ele>137</ele>
        <time>2017-11-03T15:46:56 01:00</time>
      </trkpt>
      <trkpt lat="43.80046" lon="4.245">
        <ele>136</ele>
        <time>2017-11-03T15:47:45 01:00</time>
      </trkpt>
      <trkpt lat="43.80068" lon="4.245">
        <ele>135</ele>
        <time>2017-11-03T15:47:57 01:00</time>
      </trkpt>
      <trkpt lat="43.80089" lon="4.24488">
        <ele>126</ele>
        <time>2017-11-03T15:49:13 01:00</time>
      </trkpt>
      <trkpt lat="43.80099" lon="4.24459">
        <ele>119</ele>
        <time>2017-11-03T15:49:59 01:00</time>
      </trkpt>
      <trkpt lat="43.80084" lon="4.2443">
        <ele>119</ele>
        <time>2017-11-03T15:50:35 01:00</time>
      </trkpt>
      <trkpt lat="43.80071" lon="4.24404">
        <ele>123</ele>
        <time>2017-11-03T15:50:44 01:00</time>
      </trkpt>
      <trkpt lat="43.80058" lon="4.24376">
        <ele>123</ele>
        <time>2017-11-03T15:50:52 01:00</time>
      </trkpt>
      <trkpt lat="43.80038" lon="4.24357">
        <ele>124</ele>
        <time>2017-11-03T15:51:00 01:00</time>
      </trkpt>
      <trkpt lat="43.80016" lon="4.24347">
        <ele>126</ele>
        <time>2017-11-03T15:51:28 01:00</time>
      </trkpt>
      <trkpt lat="43.8" lon="4.24324">
        <ele>126</ele>
        <time>2017-11-03T15:51:44 01:00</time>
      </trkpt>
      <trkpt lat="43.79995" lon="4.24293">
        <ele>132</ele>
        <time>2017-11-03T15:52:14 01:00</time>
      </trkpt>
      <trkpt lat="43.79989" lon="4.24262">
        <ele>131</ele>
        <time>2017-11-03T15:52:51 01:00</time>
      </trkpt>
      <trkpt lat="43.79988" lon="4.2423">
        <ele>132</ele>
        <time>2017-11-03T15:53:06 01:00</time>
      </trkpt>
      <trkpt lat="43.79987" lon="4.24198">
        <ele>133</ele>
        <time>2017-11-03T15:53:22 01:00</time>
      </trkpt>
      <trkpt lat="43.79988" lon="4.24166">
        <ele>131</ele>
        <time>2017-11-03T15:53:55 01:00</time>
      </trkpt>
      <trkpt lat="43.79985" lon="4.24135">
        <ele>133</ele>
        <time>2017-11-03T15:54:49 01:00</time>
      </trkpt>
      <trkpt lat="43.79976" lon="4.24106">
        <ele>133</ele>
        <time>2017-11-03T15:55:03 01:00</time>
      </trkpt>
      <trkpt lat="43.79965" lon="4.24078">
        <ele>133</ele>
        <time>2017-11-03T15:55:16 01:00</time>
      </trkpt>
      <trkpt lat="43.79954" lon="4.24051">
        <ele>135</ele>
        <time>2017-11-03T15:55:47 01:00</time>
      </trkpt>
      <trkpt lat="43.79965" lon="4.24023">
        <ele>134</ele>
        <time>2017-11-03T15:56:43 01:00</time>
      </trkpt>
      <trkpt lat="43.79975" lon="4.23994">
        <ele>135</ele>
        <time>2017-11-03T15:56:54 01:00</time>
      </trkpt>
      <trkpt lat="43.79985" lon="4.23966">
        <ele>136</ele>
        <time>2017-11-03T15:57:03 01:00</time>
      </trkpt>
      <trkpt lat="43.79985" lon="4.23935">
        <ele>138</ele>
        <time>2017-11-03T15:57:12 01:00</time>
      </trkpt>
      <trkpt lat="43.7999" lon="4.23904">
        <ele>141</ele>
        <time>2017-11-03T15:57:22 01:00</time>
      </trkpt>
      <trkpt lat="43.79989" lon="4.23872">
        <ele>142</ele>
        <time>2017-11-03T15:57:33 01:00</time>
      </trkpt>
      <trkpt lat="43.79991" lon="4.2384">
        <ele>143</ele>
        <time>2017-11-03T15:57:43 01:00</time>
      </trkpt>
      <trkpt lat="43.7999" lon="4.23806">
        <ele>147</ele>
        <time>2017-11-03T15:57:55 01:00</time>
      </trkpt>
      <trkpt lat="43.79996" lon="4.23775">
        <ele>150</ele>
        <time>2017-11-03T15:58:10 01:00</time>
      </trkpt>
      <trkpt lat="43.79983" lon="4.23748">
        <ele>154</ele>
        <time>2017-11-03T15:58:48 01:00</time>
      </trkpt>
      <trkpt lat="43.7996" lon="4.23744">
        <ele>155</ele>
        <time>2017-11-03T15:59:01 01:00</time>
      </trkpt>
      <trkpt lat="43.79937" lon="4.23743">
        <ele>155</ele>
        <time>2017-11-03T15:59:12 01:00</time>
      </trkpt>
      <trkpt lat="43.7994" lon="4.2371">
        <ele>156</ele>
        <time>2017-11-03T16:00:11 01:00</time>
      </trkpt>
      <trkpt lat="43.79948" lon="4.2368">
        <ele>157</ele>
        <time>2017-11-03T16:00:21 01:00</time>
      </trkpt>
      <trkpt lat="43.79957" lon="4.2365">
        <ele>161</ele>
        <time>2017-11-03T16:00:36 01:00</time>
      </trkpt>
      <trkpt lat="43.79945" lon="4.23623">
        <ele>161</ele>
        <time>2017-11-03T16:01:22 01:00</time>
      </trkpt>
      <trkpt lat="43.79925" lon="4.23609">
        <ele>162</ele>
        <time>2017-11-03T16:01:39 01:00</time>
      </trkpt>
      <trkpt lat="43.79908" lon="4.23588">
        <ele>161</ele>
        <time>2017-11-03T16:01:50 01:00</time>
      </trkpt>
      <trkpt lat="43.79887" lon="4.23567">
        <ele>162</ele>
        <time>2017-11-03T16:02:08 01:00</time>
      </trkpt>
      <trkpt lat="43.79873" lon="4.2354">
        <ele>161</ele>
        <time>2017-11-03T16:02:19 01:00</time>
      </trkpt>
      <trkpt lat="43.79868" lon="4.23509">
        <ele>162</ele>
        <time>2017-11-03T16:02:41 01:00</time>
      </trkpt>
      <trkpt lat="43.79885" lon="4.23488">
        <ele>164</ele>
        <time>2017-11-03T16:02:57 01:00</time>
      </trkpt>
      <trkpt lat="43.79902" lon="4.23465">
        <ele>165</ele>
        <time>2017-11-03T16:03:09 01:00</time>
      </trkpt>
      <trkpt lat="43.79908" lon="4.23433">
        <ele>165</ele>
        <time>2017-11-03T16:03:19 01:00</time>
      </trkpt>
      <trkpt lat="43.79923" lon="4.23407">
        <ele>167</ele>
        <time>2017-11-03T16:03:30 01:00</time>
      </trkpt>
      <trkpt lat="43.79937" lon="4.23382">
        <ele>167</ele>
        <time>2017-11-03T16:03:42 01:00</time>
      </trkpt>
      <trkpt lat="43.79961" lon="4.23385">
        <ele>168</ele>
        <time>2017-11-03T16:03:57 01:00</time>
      </trkpt>
      <trkpt lat="43.79981" lon="4.23403">
        <ele>169</ele>
        <time>2017-11-03T16:04:30 01:00</time>
      </trkpt>
      <trkpt lat="43.80004" lon="4.2341">
        <ele>171</ele>
        <time>2017-11-03T16:04:42 01:00</time>
      </trkpt>
      <trkpt lat="43.80025" lon="4.23397">
        <ele>170</ele>
        <time>2017-11-03T16:04:55 01:00</time>
      </trkpt>
      <trkpt lat="43.80039" lon="4.23369">
        <ele>169</ele>
        <time>2017-11-03T16:05:56 01:00</time>
      </trkpt>
      <trkpt lat="43.8006" lon="4.23355">
        <ele>167</ele>
        <time>2017-11-03T16:06:25 01:00</time>
      </trkpt>
      <trkpt lat="43.80078" lon="4.23378">
        <ele>168</ele>
        <time>2017-11-03T16:06:38 01:00</time>
      </trkpt>
      <trkpt lat="43.8009" lon="4.23406">
        <ele>166</ele>
        <time>2017-11-03T16:06:48 01:00</time>
      </trkpt>
      <trkpt lat="43.80105" lon="4.23429">
        <ele>167</ele>
        <time>2017-11-03T16:07:00 01:00</time>
      </trkpt>
      <trkpt lat="43.80121" lon="4.23454">
        <ele>165</ele>
        <time>2017-11-03T16:07:12 01:00</time>
      </trkpt>
      <trkpt lat="43.80133" lon="4.23481">
        <ele>164</ele>
        <time>2017-11-03T16:07:19 01:00</time>
      </trkpt>
      <trkpt lat="43.80138" lon="4.23511">
        <ele>164</ele>
        <time>2017-11-03T16:07:29 01:00</time>
      </trkpt>
      <trkpt lat="43.80137" lon="4.23543">
        <ele>164</ele>
        <time>2017-11-03T16:08:33 01:00</time>
      </trkpt>
      <trkpt lat="43.8015" lon="4.23569">
        <ele>164</ele>
        <time>2017-11-03T16:08:49 01:00</time>
      </trkpt>
      <trkpt lat="43.80128" lon="4.23577">
        <ele>164</ele>
        <time>2017-11-03T16:09:05 01:00</time>
      </trkpt>
      <trkpt lat="43.80124" lon="4.23609">
        <ele>163</ele>
        <time>2017-11-03T16:09:19 01:00</time>
      </trkpt>
      <trkpt lat="43.80119" lon="4.2364">
        <ele>162</ele>
        <time>2017-11-03T16:09:33 01:00</time>
      </trkpt>
      <trkpt lat="43.8011" lon="4.23669">
        <ele>160</ele>
        <time>2017-11-03T16:09:46 01:00</time>
      </trkpt>
      <trkpt lat="43.80087" lon="4.23664">
        <ele>163</ele>
        <time>2017-11-03T16:10:00 01:00</time>
      </trkpt>
      <trkpt lat="43.80072" lon="4.23689">
        <ele>159</ele>
        <time>2017-11-03T16:10:09 01:00</time>
      </trkpt>
      <trkpt lat="43.80093" lon="4.23707">
        <ele>158</ele>
        <time>2017-11-03T16:10:19 01:00</time>
      </trkpt>
      <trkpt lat="43.80114" lon="4.23723">
        <ele>158</ele>
        <time>2017-11-03T16:10:29 01:00</time>
      </trkpt>
      <trkpt lat="43.80135" lon="4.23735">
        <ele>158</ele>
        <time>2017-11-03T16:10:40 01:00</time>
      </trkpt>
      <trkpt lat="43.80156" lon="4.23749">
        <ele>157</ele>
        <time>2017-11-03T16:11:05 01:00</time>
      </trkpt>
      <trkpt lat="43.80169" lon="4.23777">
        <ele>155</ele>
        <time>2017-11-03T16:11:30 01:00</time>
      </trkpt>
      <trkpt lat="43.80159" lon="4.23806">
        <ele>152</ele>
        <time>2017-11-03T16:11:40 01:00</time>
      </trkpt>
      <trkpt lat="43.80157" lon="4.23838">
        <ele>148</ele>
        <time>2017-11-03T16:12:14 01:00</time>
      </trkpt>
      <trkpt lat="43.80141" lon="4.23865">
        <ele>144</ele>
        <time>2017-11-03T16:12:22 01:00</time>
      </trkpt>
      <trkpt lat="43.80136" lon="4.23896">
        <ele>142</ele>
        <time>2017-11-03T16:12:28 01:00</time>
      </trkpt>
      <trkpt lat="43.80132" lon="4.23928">
        <ele>137</ele>
        <time>2017-11-03T16:12:36 01:00</time>
      </trkpt>
      <trkpt lat="43.80128" lon="4.23961">
        <ele>136</ele>
        <time>2017-11-03T16:12:46 01:00</time>
      </trkpt>
      <trkpt lat="43.80131" lon="4.23993">
        <ele>135</ele>
        <time>2017-11-03T16:13:05 01:00</time>
      </trkpt>
      <trkpt lat="43.80152" lon="4.24004">
        <ele>128</ele>
        <time>2017-11-03T16:13:46 01:00</time>
      </trkpt>
      <trkpt lat="43.80153" lon="4.23972">
        <ele>134</ele>
        <time>2017-11-03T16:14:06 01:00</time>
      </trkpt>
      <trkpt lat="43.80147" lon="4.23942">
        <ele>136</ele>
        <time>2017-11-03T16:14:31 01:00</time>
      </trkpt>
      <trkpt lat="43.80147" lon="4.2391">
        <ele>141</ele>
        <time>2017-11-03T16:14:44 01:00</time>
      </trkpt>
      <trkpt lat="43.80161" lon="4.23884">
        <ele>142</ele>
        <time>2017-11-03T16:16:29 01:00</time>
      </trkpt>
      <trkpt lat="43.80185" lon="4.23885">
        <ele>142</ele>
        <time>2017-11-03T16:16:57 01:00</time>
      </trkpt>
      <trkpt lat="43.80206" lon="4.23897">
        <ele>140</ele>
        <time>2017-11-03T16:17:35 01:00</time>
      </trkpt>
      <trkpt lat="43.80221" lon="4.23924">
        <ele>129</ele>
        <time>2017-11-03T16:17:56 01:00</time>
      </trkpt>
      <trkpt lat="43.8024" lon="4.23944">
        <ele>127</ele>
        <time>2017-11-03T16:18:13 01:00</time>
      </trkpt>
      <trkpt lat="43.80261" lon="4.23958">
        <ele>118</ele>
        <time>2017-11-03T16:18:23 01:00</time>
      </trkpt>
      <trkpt lat="43.80283" lon="4.23969">
        <ele>115</ele>
        <time>2017-11-03T16:18:37 01:00</time>
      </trkpt>
      <trkpt lat="43.80304" lon="4.23981">
        <ele>113</ele>
        <time>2017-11-03T16:18:53 01:00</time>
      </trkpt>
      <trkpt lat="43.80283" lon="4.23994">
        <ele>113</ele>
        <time>2017-11-03T16:19:37 01:00</time>
      </trkpt>
      <trkpt lat="43.80262" lon="4.23984">
        <ele>114</ele>
        <time>2017-11-03T16:19:49 01:00</time>
      </trkpt>
      <trkpt lat="43.80239" lon="4.23975">
        <ele>123</ele>
        <time>2017-11-03T16:20:28 01:00</time>
      </trkpt>
      <trkpt lat="43.80216" lon="4.23972">
        <ele>125</ele>
        <time>2017-11-03T16:20:43 01:00</time>
      </trkpt>
      <trkpt lat="43.80225" lon="4.24002">
        <ele>115</ele>
        <time>2017-11-03T16:22:04 01:00</time>
      </trkpt>
      <trkpt lat="43.80241" lon="4.24025">
        <ele>113</ele>
        <time>2017-11-03T16:22:39 01:00</time>
      </trkpt>
      <trkpt lat="43.80247" lon="4.24055">
        <ele>110</ele>
        <time>2017-11-03T16:23:09 01:00</time>
      </trkpt>
      <trkpt lat="43.8026" lon="4.24082">
        <ele>101</ele>
        <time>2017-11-03T16:23:56 01:00</time>
      </trkpt>
      <trkpt lat="43.80259" lon="4.24114">
        <ele>96</ele>
        <time>2017-11-03T16:24:12 01:00</time>
      </trkpt>
      <trkpt lat="43.80247" lon="4.2414">
        <ele>99</ele>
        <time>2017-11-03T16:24:51 01:00</time>
      </trkpt>
      <trkpt lat="43.80223" lon="4.24144">
        <ele>101</ele>
        <time>2017-11-03T16:25:18 01:00</time>
      </trkpt>
      <trkpt lat="43.80204" lon="4.24162">
        <ele>101</ele>
        <time>2017-11-03T16:25:52 01:00</time>
      </trkpt>
      <trkpt lat="43.80181" lon="4.24167">
        <ele>102</ele>
        <time>2017-11-03T16:26:23 01:00</time>
      </trkpt>
      <trkpt lat="43.80158" lon="4.24174">
        <ele>101</ele>
        <time>2017-11-03T16:26:41 01:00</time>
      </trkpt>
      <trkpt lat="43.80139" lon="4.24191">
        <ele>101</ele>
        <time>2017-11-03T16:26:53 01:00</time>
      </trkpt>
      <trkpt lat="43.80117" lon="4.24208">
        <ele>102</ele>
        <time>2017-11-03T16:27:44 01:00</time>
      </trkpt>
      <trkpt lat="43.80095" lon="4.24216">
        <ele>102</ele>
        <time>2017-11-03T16:28:27 01:00</time>
      </trkpt>
      <trkpt lat="43.80081" lon="4.24189">
        <ele>111</ele>
        <time>2017-11-03T16:28:42 01:00</time>
      </trkpt>
      <trkpt lat="43.80095" lon="4.24213">
        <ele>102</ele>
        <time>2017-11-03T16:30:08 01:00</time>
      </trkpt>
      <trkpt lat="43.80102" lon="4.24243">
        <ele>102</ele>
        <time>2017-11-03T16:30:27 01:00</time>
      </trkpt>
      <trkpt lat="43.80089" lon="4.24272">
        <ele>102</ele>
        <time>2017-11-03T16:30:38 01:00</time>
      </trkpt>
      <trkpt lat="43.8007" lon="4.2429">
        <ele>114</ele>
        <time>2017-11-03T16:31:04 01:00</time>
      </trkpt>
      <trkpt lat="43.8008" lon="4.24317">
        <ele>112</ele>
        <time>2017-11-03T16:32:11 01:00</time>
      </trkpt>
      <trkpt lat="43.80095" lon="4.24342">
        <ele>108</ele>
        <time>2017-11-03T16:32:27 01:00</time>
      </trkpt>
      <trkpt lat="43.80109" lon="4.24367">
        <ele>107</ele>
        <time>2017-11-03T16:32:43 01:00</time>
      </trkpt>
      <trkpt lat="43.80119" lon="4.24398">
        <ele>108</ele>
        <time>2017-11-03T16:32:53 01:00</time>
      </trkpt>
      <trkpt lat="43.8013" lon="4.24425">
        <ele>112</ele>
        <time>2017-11-03T16:33:03 01:00</time>
      </trkpt>
      <trkpt lat="43.80141" lon="4.24455">
        <ele>112</ele>
        <time>2017-11-03T16:33:12 01:00</time>
      </trkpt>
      <trkpt lat="43.80149" lon="4.24486">
        <ele>110</ele>
        <time>2017-11-03T16:33:47 01:00</time>
      </trkpt>
      <trkpt lat="43.80159" lon="4.24516">
        <ele>110</ele>
        <time>2017-11-03T16:33:55 01:00</time>
      </trkpt>
      <trkpt lat="43.80166" lon="4.24548">
        <ele>112</ele>
        <time>2017-11-03T16:34:01 01:00</time>
      </trkpt>
      <trkpt lat="43.80169" lon="4.24582">
        <ele>102</ele>
        <time>2017-11-03T16:34:09 01:00</time>
      </trkpt>
      <trkpt lat="43.80172" lon="4.24617">
        <ele>96</ele>
        <time>2017-11-03T16:34:15 01:00</time>
      </trkpt>
      <trkpt lat="43.80162" lon="4.24645">
        <ele>105</ele>
        <time>2017-11-03T16:34:49 01:00</time>
      </trkpt>
      <trkpt lat="43.80141" lon="4.24659">
        <ele>106</ele>
        <time>2017-11-03T16:35:13 01:00</time>
      </trkpt>
      <trkpt lat="43.80117" lon="4.24657">
        <ele>110</ele>
        <time>2017-11-03T16:35:34 01:00</time>
      </trkpt>
      <trkpt lat="43.80095" lon="4.24665">
        <ele>112</ele>
        <time>2017-11-03T16:36:08 01:00</time>
      </trkpt>
      <trkpt lat="43.80091" lon="4.24698">
        <ele>105</ele>
        <time>2017-11-03T16:36:38 01:00</time>
      </trkpt>
      <trkpt lat="43.80076" lon="4.24723">
        <ele>112</ele>
        <time>2017-11-03T16:36:47 01:00</time>
      </trkpt>
      <trkpt lat="43.80065" lon="4.24752">
        <ele>108</ele>
        <time>2017-11-03T16:36:58 01:00</time>
      </trkpt>
      <trkpt lat="43.80044" lon="4.24764">
        <ele>112</ele>
        <time>2017-11-03T16:39:00 01:00</time>
      </trkpt>
      <trkpt lat="43.8005" lon="4.24799">
        <ele>111</ele>
        <time>2017-11-03T16:39:27 01:00</time>
      </trkpt>
      <trkpt lat="43.80057" lon="4.24831">
        <ele>110</ele>
        <time>2017-11-03T16:39:34 01:00</time>
      </trkpt>
      <trkpt lat="43.80077" lon="4.24848">
        <ele>111</ele>
        <time>2017-11-03T16:39:41 01:00</time>
      </trkpt>
      <trkpt lat="43.8007" lon="4.24878">
        <ele>116</ele>
        <time>2017-11-03T16:39:59 01:00</time>
      </trkpt>
      <trkpt lat="43.80052" lon="4.24898">
        <ele>118</ele>
        <time>2017-11-03T16:40:08 01:00</time>
      </trkpt>
      <trkpt lat="43.80028" lon="4.24903">
        <ele>119</ele>
        <time>2017-11-03T16:40:18 01:00</time>
      </trkpt>
      <trkpt lat="43.80009" lon="4.24924">
        <ele>123</ele>
        <time>2017-11-03T16:41:17 01:00</time>
      </trkpt>
      <trkpt lat="43.79995" lon="4.24948">
        <ele>125</ele>
        <time>2017-11-03T16:42:04 01:00</time>
      </trkpt>
      <trkpt lat="43.79975" lon="4.24963">
        <ele>125</ele>
        <time>2017-11-03T16:42:24 01:00</time>
      </trkpt>
      <trkpt lat="43.79952" lon="4.24972">
        <ele>125</ele>
        <time>2017-11-03T16:43:02 01:00</time>
      </trkpt>
      <trkpt lat="43.7993" lon="4.24986">
        <ele>124</ele>
        <time>2017-11-03T16:43:12 01:00</time>
      </trkpt>
      <trkpt lat="43.79905" lon="4.24998">
        <ele>124</ele>
        <time>2017-11-03T16:43:18 01:00</time>
      </trkpt>
      <trkpt lat="43.7988" lon="4.25013">
        <ele>122</ele>
        <time>2017-11-03T16:43:23 01:00</time>
      </trkpt>
      <trkpt lat="43.79857" lon="4.25024">
        <ele>122</ele>
        <time>2017-11-03T16:43:27 01:00</time>
      </trkpt>
      <trkpt lat="43.79834" lon="4.25038">
        <ele>122</ele>
        <time>2017-11-03T16:43:31 01:00</time>
      </trkpt>
      <trkpt lat="43.79811" lon="4.25052">
        <ele>123</ele>
        <time>2017-11-03T16:43:35 01:00</time>
      </trkpt>
      <trkpt lat="43.79789" lon="4.25067">
        <ele>124</ele>
        <time>2017-11-03T16:43:39 01:00</time>
      </trkpt>
      <trkpt lat="43.79768" lon="4.25081">
        <ele>124</ele>
        <time>2017-11-03T16:43:43 01:00</time>
      </trkpt>
      <trkpt lat="43.79746" lon="4.25094">
        <ele>121</ele>
        <time>2017-11-03T16:43:47 01:00</time>
      </trkpt>
      <trkpt lat="43.79723" lon="4.25097">
        <ele>120</ele>
        <time>2017-11-03T16:43:51 01:00</time>
      </trkpt>
      <trkpt lat="43.79698" lon="4.25092">
        <ele>120</ele>
        <time>2017-11-03T16:43:56 01:00</time>
      </trkpt>
      <trkpt lat="43.79672" lon="4.25099">
        <ele>120</ele>
        <time>2017-11-03T16:44:02 01:00</time>
      </trkpt>
      <trkpt lat="43.79649" lon="4.25113">
        <ele>119</ele>
        <time>2017-11-03T16:44:07 01:00</time>
      </trkpt>
      <trkpt lat="43.79623" lon="4.25128">
        <ele>118</ele>
        <time>2017-11-03T16:44:12 01:00</time>
      </trkpt>
      <trkpt lat="43.79605" lon="4.25148">
        <ele>118</ele>
        <time>2017-11-03T16:44:16 01:00</time>
      </trkpt>
      <trkpt lat="43.79594" lon="4.25176">
        <ele>116</ele>
        <time>2017-11-03T16:44:20 01:00</time>
      </trkpt>
      <trkpt lat="43.79574" lon="4.25191">
        <ele>116</ele>
        <time>2017-11-03T16:44:24 01:00</time>
      </trkpt>
      <trkpt lat="43.79551" lon="4.25202">
        <ele>115</ele>
        <time>2017-11-03T16:44:28 01:00</time>
      </trkpt>
      <trkpt lat="43.7953" lon="4.25213">
        <ele>114</ele>
        <time>2017-11-03T16:44:32 01:00</time>
      </trkpt>
      <trkpt lat="43.79509" lon="4.25226">
        <ele>114</ele>
        <time>2017-11-03T16:44:36 01:00</time>
      </trkpt>
      <trkpt lat="43.79485" lon="4.25242">
        <ele>112</ele>
        <time>2017-11-03T16:44:40 01:00</time>
      </trkpt>
      <trkpt lat="43.79467" lon="4.25264">
        <ele>110</ele>
        <time>2017-11-03T16:44:44 01:00</time>
      </trkpt>
      <trkpt lat="43.79456" lon="4.25237">
        <ele>111</ele>
        <time>2017-11-03T16:45:01 01:00</time>
      </trkpt>
      <trkpt lat="43.79431" lon="4.25222">
        <ele>111</ele>
        <time>2017-11-03T16:45:07 01:00</time>
      </trkpt>
      <trkpt lat="43.79411" lon="4.25204">
        <ele>108</ele>
        <time>2017-11-03T16:45:12 01:00</time>
      </trkpt>
      <trkpt lat="43.79388" lon="4.252">
        <ele>107</ele>
        <time>2017-11-03T16:45:17 01:00</time>
      </trkpt>
      <trkpt lat="43.79365" lon="4.2521">
        <ele>106</ele>
        <time>2017-11-03T16:45:25 01:00</time>
      </trkpt>
      <trkpt lat="43.79343" lon="4.25222">
        <ele>105</ele>
        <time>2017-11-03T16:45:36 01:00</time>
      </trkpt>
      <trkpt lat="43.79323" lon="4.25237">
        <ele>102</ele>
        <time>2017-11-03T16:45:47 01:00</time>
      </trkpt>
      <trkpt lat="43.79299" lon="4.25247">
        <ele>102</ele>
        <time>2017-11-03T16:45:56 01:00</time>
      </trkpt>
      <trkpt lat="43.79275" lon="4.25253">
        <ele>101</ele>
        <time>2017-11-03T16:46:06 01:00</time>
      </trkpt>
      <trkpt lat="43.79251" lon="4.25261">
        <ele>101</ele>
        <time>2017-11-03T16:46:15 01:00</time>
      </trkpt>
      <trkpt lat="43.79228" lon="4.25254">
        <ele>100</ele>
        <time>2017-11-03T16:46:23 01:00</time>
      </trkpt>
      <trkpt lat="43.79203" lon="4.25252">
        <ele>99</ele>
        <time>2017-11-03T16:46:32 01:00</time>
      </trkpt>
      <trkpt lat="43.7918" lon="4.25253">
        <ele>97</ele>
        <time>2017-11-03T16:46:41 01:00</time>
      </trkpt>
      <trkpt lat="43.79157" lon="4.25254">
        <ele>96</ele>
        <time>2017-11-03T16:46:51 01:00</time>
      </trkpt>
      <trkpt lat="43.79133" lon="4.25265">
        <ele>96</ele>
        <time>2017-11-03T16:47:01 01:00</time>
      </trkpt>
      <trkpt lat="43.7911" lon="4.25274">
        <ele>95</ele>
        <time>2017-11-03T16:47:10 01:00</time>
      </trkpt>
      <trkpt lat="43.79093" lon="4.25297">
        <ele>95</ele>
        <time>2017-11-03T16:47:20 01:00</time>
      </trkpt>
      <trkpt lat="43.79078" lon="4.25319">
        <ele>94</ele>
        <time>2017-11-03T16:47:38 01:00</time>
      </trkpt>
      <trkpt lat="43.79075" lon="4.25351">
        <ele>93</ele>
        <time>2017-11-03T16:48:00 01:00</time>
      </trkpt>
      <trkpt lat="43.79099" lon="4.25343">
        <ele>95</ele>
        <time>2017-11-03T16:48:16 01:00</time>
      </trkpt>
      <trkpt lat="43.79121" lon="4.2535">
        <ele>97</ele>
        <time>2017-11-03T16:48:33 01:00</time>
      </trkpt>
      <trkpt lat="43.79139" lon="4.25371">
        <ele>98</ele>
        <time>2017-11-03T16:48:49 01:00</time>
      </trkpt>
      <trkpt lat="43.79119" lon="4.25349">
        <ele>96</ele>
        <time>2017-11-03T16:49:40 01:00</time>
      </trkpt>
      <trkpt lat="43.79096" lon="4.25346">
        <ele>95</ele>
        <time>2017-11-03T16:49:45 01:00</time>
      </trkpt>
      <trkpt lat="43.79073" lon="4.25356">
        <ele>93</ele>
        <time>2017-11-03T16:49:50 01:00</time>
      </trkpt>
      <trkpt lat="43.7905" lon="4.25359">
        <ele>92</ele>
        <time>2017-11-03T16:50:30 01:00</time>
      </trkpt>
      <trkpt lat="43.79032" lon="4.25379">
        <ele>92</ele>
        <time>2017-11-03T16:50:42 01:00</time>
      </trkpt>
      <trkpt lat="43.79012" lon="4.25394">
        <ele>91</ele>
        <time>2017-11-03T16:50:51 01:00</time>
      </trkpt>
      <trkpt lat="43.78989" lon="4.254">
        <ele>89</ele>
        <time>2017-11-03T16:51:00 01:00</time>
      </trkpt>
      <trkpt lat="43.78967" lon="4.2541">
        <ele>89</ele>
        <time>2017-11-03T16:51:09 01:00</time>
      </trkpt>
      <trkpt lat="43.78943" lon="4.25416">
        <ele>89</ele>
        <time>2017-11-03T16:51:18 01:00</time>
      </trkpt>
      <trkpt lat="43.78921" lon="4.25427">
        <ele>87</ele>
        <time>2017-11-03T16:51:28 01:00</time>
      </trkpt>
      <trkpt lat="43.78909" lon="4.25458">
        <ele>86</ele>
        <time>2017-11-03T16:51:35 01:00</time>
      </trkpt>
      <trkpt lat="43.78893" lon="4.25482">
        <ele>86</ele>
        <time>2017-11-03T16:51:43 01:00</time>
      </trkpt>
      <trkpt lat="43.78872" lon="4.25498">
        <ele>85</ele>
        <time>2017-11-03T16:51:51 01:00</time>
      </trkpt>
      <trkpt lat="43.78848" lon="4.25502">
        <ele>85</ele>
        <time>2017-11-03T16:51:58 01:00</time>
      </trkpt>
      <trkpt lat="43.78823" lon="4.25508">
        <ele>83</ele>
        <time>2017-11-03T16:52:05 01:00</time>
      </trkpt>
      <trkpt lat="43.78799" lon="4.25506">
        <ele>83</ele>
        <time>2017-11-03T16:52:12 01:00</time>
      </trkpt>
      <trkpt lat="43.7878" lon="4.25524">
        <ele>83</ele>
        <time>2017-11-03T16:52:35 01:00</time>
      </trkpt>
      <trkpt lat="43.78764" lon="4.25548">
        <ele>84</ele>
        <time>2017-11-03T16:52:43 01:00</time>
      </trkpt>
      <trkpt lat="43.78741" lon="4.25539">
        <ele>81</ele>
        <time>2017-11-03T16:52:50 01:00</time>
      </trkpt>
      <trkpt lat="43.78716" lon="4.25536">
        <ele>81</ele>
        <time>2017-11-03T16:52:57 01:00</time>
      </trkpt>
      <trkpt lat="43.78693" lon="4.25542">
        <ele>81</ele>
        <time>2017-11-03T16:53:03 01:00</time>
      </trkpt>
      <trkpt lat="43.78668" lon="4.25548">
        <ele>80</ele>
        <time>2017-11-03T16:53:10 01:00</time>
      </trkpt>
      <trkpt lat="43.78641" lon="4.25552">
        <ele>78</ele>
        <time>2017-11-03T16:53:17 01:00</time>
      </trkpt>
      <trkpt lat="43.78619" lon="4.25564">
        <ele>78</ele>
        <time>2017-11-03T16:53:34 01:00</time>
      </trkpt>
      <trkpt lat="43.78602" lon="4.25587">
        <ele>77</ele>
        <time>2017-11-03T16:53:54 01:00</time>
      </trkpt>
      <trkpt lat="43.78578" lon="4.25594">
        <ele>75</ele>
        <time>2017-11-03T16:54:03 01:00</time>
      </trkpt>
      <trkpt lat="43.78557" lon="4.25608">
        <ele>75</ele>
        <time>2017-11-03T16:54:11 01:00</time>
      </trkpt>
      <trkpt lat="43.78534" lon="4.25612">
        <ele>75</ele>
        <time>2017-11-03T16:54:18 01:00</time>
      </trkpt>
      <trkpt lat="43.78514" lon="4.25629">
        <ele>74</ele>
        <time>2017-11-03T16:54:27 01:00</time>
      </trkpt>
      <trkpt lat="43.78491" lon="4.25621">
        <ele>72</ele>
        <time>2017-11-03T16:54:35 01:00</time>
      </trkpt>
      <trkpt lat="43.78468" lon="4.25629">
        <ele>72</ele>
        <time>2017-11-03T16:54:45 01:00</time>
      </trkpt>
      <trkpt lat="43.78444" lon="4.25629">
        <ele>72</ele>
        <time>2017-11-03T16:54:53 01:00</time>
      </trkpt>
      <trkpt lat="43.78446" lon="4.25662">
        <ele>72</ele>
        <time>2017-11-03T16:55:54 01:00</time>
      </trkpt>
      <trkpt lat="43.78432" lon="4.25633">
        <ele>71</ele>
        <time>2017-11-03T16:56:09 01:00</time>
      </trkpt>
      <trkpt lat="43.78436" lon="4.256">
        <ele>71</ele>
        <time>2017-11-03T16:56:27 01:00</time>
      </trkpt>
      <trkpt lat="43.78444" lon="4.25566">
        <ele>71</ele>
        <time>2017-11-03T16:56:34 01:00</time>
      </trkpt>
      <trkpt lat="43.78447" lon="4.25535">
        <ele>72</ele>
        <time>2017-11-03T16:56:40 01:00</time>
      </trkpt>
      <trkpt lat="43.78457" lon="4.25503">
        <ele>73</ele>
        <time>2017-11-03T16:56:46 01:00</time>
      </trkpt>
      <trkpt lat="43.78464" lon="4.25473">
        <ele>75</ele>
        <time>2017-11-03T16:56:52 01:00</time>
      </trkpt>
      <trkpt lat="43.78473" lon="4.25444">
        <ele>76</ele>
        <time>2017-11-03T16:56:59 01:00</time>
      </trkpt>
      <trkpt lat="43.78482" lon="4.25415">
        <ele>77</ele>
        <time>2017-11-03T16:57:21 01:00</time>
      </trkpt>
      <trkpt lat="43.78479" lon="4.25384">
        <ele>78</ele>
        <time>2017-11-03T16:57:32 01:00</time>
      </trkpt>
      <trkpt lat="43.78471" lon="4.25354">
        <ele>78</ele>
        <time>2017-11-03T16:57:45 01:00</time>
      </trkpt>
      <trkpt lat="43.78459" lon="4.25327">
        <ele>78</ele>
        <time>2017-11-03T16:57:58 01:00</time>
      </trkpt>
      <trkpt lat="43.78449" lon="4.25299">
        <ele>78</ele>
        <time>2017-11-03T16:58:11 01:00</time>
      </trkpt>
      <trkpt lat="43.78447" lon="4.25266">
        <ele>78</ele>
        <time>2017-11-03T16:58:26 01:00</time>
      </trkpt>
      <trkpt lat="43.78447" lon="4.25234">
        <ele>79</ele>
        <time>2017-11-03T16:58:54 01:00</time>
      </trkpt>
      <trkpt lat="43.78447" lon="4.25201">
        <ele>79</ele>
        <time>2017-11-03T16:59:07 01:00</time>
      </trkpt>
      <trkpt lat="43.78427" lon="4.25184">
        <ele>79</ele>
        <time>2017-11-03T16:59:14 01:00</time>
      </trkpt>
      <trkpt lat="43.78404" lon="4.25182">
        <ele>79</ele>
        <time>2017-11-03T16:59:21 01:00</time>
      </trkpt>
      <trkpt lat="43.78381" lon="4.25179">
        <ele>80</ele>
        <time>2017-11-03T16:59:29 01:00</time>
      </trkpt>
      <trkpt lat="43.78356" lon="4.25185">
        <ele>80</ele>
        <time>2017-11-03T16:59:36 01:00</time>
      </trkpt>
      <trkpt lat="43.78343" lon="4.25156">
        <ele>81</ele>
        <time>2017-11-03T17:00:03 01:00</time>
      </trkpt>
      <trkpt lat="43.78325" lon="4.25136">
        <ele>83</ele>
        <time>2017-11-03T17:00:13 01:00</time>
      </trkpt>
      <trkpt lat="43.78304" lon="4.2512">
        <ele>83</ele>
        <time>2017-11-03T17:00:24 01:00</time>
      </trkpt>
      <trkpt lat="43.78286" lon="4.25099">
        <ele>84</ele>
        <time>2017-11-03T17:00:35 01:00</time>
      </trkpt>
      <trkpt lat="43.78268" lon="4.25078">
        <ele>86</ele>
        <time>2017-11-03T17:01:20 01:00</time>
      </trkpt>
      <trkpt lat="43.78248" lon="4.25063">
        <ele>86</ele>
        <time>2017-11-03T17:01:32 01:00</time>
      </trkpt>
      <trkpt lat="43.78232" lon="4.25038">
        <ele>87</ele>
        <time>2017-11-03T17:01:44 01:00</time>
      </trkpt>
      <trkpt lat="43.78216" lon="4.25014">
        <ele>87</ele>
        <time>2017-11-03T17:01:54 01:00</time>
      </trkpt>
      <trkpt lat="43.78192" lon="4.25006">
        <ele>86</ele>
        <time>2017-11-03T17:02:05 01:00</time>
      </trkpt>
      <trkpt lat="43.78183" lon="4.25035">
        <ele>86</ele>
        <time>2017-11-03T17:03:12 01:00</time>
      </trkpt>
      <trkpt lat="43.78172" lon="4.25068">
        <ele>85</ele>
        <time>2017-11-03T17:03:20 01:00</time>
      </trkpt>
      <trkpt lat="43.78164" lon="4.25101">
        <ele>84</ele>
        <time>2017-11-03T17:03:26 01:00</time>
      </trkpt>
      <trkpt lat="43.78155" lon="4.25131">
        <ele>84</ele>
        <time>2017-11-03T17:03:31 01:00</time>
      </trkpt>
      <trkpt lat="43.7814" lon="4.25156">
        <ele>84</ele>
        <time>2017-11-03T17:03:36 01:00</time>
      </trkpt>
      <trkpt lat="43.78117" lon="4.25168">
        <ele>84</ele>
        <time>2017-11-03T17:03:41 01:00</time>
      </trkpt>
      <trkpt lat="43.78096" lon="4.25181">
        <ele>84</ele>
        <time>2017-11-03T17:03:46 01:00</time>
      </trkpt>
      <trkpt lat="43.78074" lon="4.25198">
        <ele>83</ele>
        <time>2017-11-03T17:03:51 01:00</time>
      </trkpt>
      <trkpt lat="43.78053" lon="4.25212">
        <ele>83</ele>
        <time>2017-11-03T17:03:56 01:00</time>
      </trkpt>
      <trkpt lat="43.78033" lon="4.25227">
        <ele>83</ele>
        <time>2017-11-03T17:04:01 01:00</time>
      </trkpt>
      <trkpt lat="43.78012" lon="4.25243">
        <ele>83</ele>
        <time>2017-11-03T17:04:06 01:00</time>
      </trkpt>
      <trkpt lat="43.7799" lon="4.25259">
        <ele>84</ele>
        <time>2017-11-03T17:04:12 01:00</time>
      </trkpt>
      <trkpt lat="43.7797" lon="4.25274">
        <ele>84</ele>
        <time>2017-11-03T17:04:19 01:00</time>
      </trkpt>
      <trkpt lat="43.77949" lon="4.25289">
        <ele>84</ele>
        <time>2017-11-03T17:04:26 01:00</time>
      </trkpt>
      <trkpt lat="43.77929" lon="4.25308">
        <ele>85</ele>
        <time>2017-11-03T17:04:35 01:00</time>
      </trkpt>
      <trkpt lat="43.77908" lon="4.25325">
        <ele>84</ele>
        <time>2017-11-03T17:06:03 01:00</time>
      </trkpt>
      <trkpt lat="43.77885" lon="4.25335">
        <ele>85</ele>
        <time>2017-11-03T17:06:11 01:00</time>
      </trkpt>
      <trkpt lat="43.77881" lon="4.25368">
        <ele>85</ele>
        <time>2017-11-03T17:06:31 01:00</time>
      </trkpt>
      <trkpt lat="43.77873" lon="4.25397">
        <ele>84</ele>
        <time>2017-11-03T17:06:39 01:00</time>
      </trkpt>
      <trkpt lat="43.77861" lon="4.25427">
        <ele>83</ele>
        <time>2017-11-03T17:06:50 01:00</time>
      </trkpt>
      <trkpt lat="43.77851" lon="4.25456">
        <ele>83</ele>
        <time>2017-11-03T17:06:57 01:00</time>
      </trkpt>
      <trkpt lat="43.77839" lon="4.25485">
        <ele>81</ele>
        <time>2017-11-03T17:07:07 01:00</time>
      </trkpt>
      <trkpt lat="43.77825" lon="4.25513">
        <ele>79</ele>
        <time>2017-11-03T17:07:17 01:00</time>
      </trkpt>
      <trkpt lat="43.77805" lon="4.25532">
        <ele>79</ele>
        <time>2017-11-03T17:07:29 01:00</time>
      </trkpt>
      <trkpt lat="43.77783" lon="4.2555">
        <ele>79</ele>
        <time>2017-11-03T17:07:37 01:00</time>
      </trkpt>
      <trkpt lat="43.77763" lon="4.25566">
        <ele>78</ele>
        <time>2017-11-03T17:07:44 01:00</time>
      </trkpt>
      <trkpt lat="43.77743" lon="4.25582">
        <ele>77</ele>
        <time>2017-11-03T17:07:53 01:00</time>
      </trkpt>
      <trkpt lat="43.77723" lon="4.25601">
        <ele>76</ele>
        <time>2017-11-03T17:08:03 01:00</time>
      </trkpt>
      <trkpt lat="43.77705" lon="4.2562">
        <ele>76</ele>
        <time>2017-11-03T17:08:14 01:00</time>
      </trkpt>
      <trkpt lat="43.77689" lon="4.25645">
        <ele>75</ele>
        <time>2017-11-03T17:08:22 01:00</time>
      </trkpt>
      <trkpt lat="43.77674" lon="4.25672">
        <ele>74</ele>
        <time>2017-11-03T17:08:32 01:00</time>
      </trkpt>
      <trkpt lat="43.77661" lon="4.25699">
        <ele>74</ele>
        <time>2017-11-03T17:08:41 01:00</time>
      </trkpt>
      <trkpt lat="43.77645" lon="4.25724">
        <ele>74</ele>
        <time>2017-11-03T17:08:58 01:00</time>
      </trkpt>
      <trkpt lat="43.77629" lon="4.25749">
        <ele>74</ele>
        <time>2017-11-03T17:09:05 01:00</time>
      </trkpt>
      <trkpt lat="43.77617" lon="4.25777">
        <ele>72</ele>
        <time>2017-11-03T17:09:12 01:00</time>
      </trkpt>
      <trkpt lat="43.77606" lon="4.25807">
        <ele>71</ele>
        <time>2017-11-03T17:09:19 01:00</time>
      </trkpt>
      <trkpt lat="43.77605" lon="4.25844">
        <ele>70</ele>
        <time>2017-11-03T17:09:27 01:00</time>
      </trkpt>
      <trkpt lat="43.77606" lon="4.25876">
        <ele>70</ele>
        <time>2017-11-03T17:09:37 01:00</time>
      </trkpt>
      <trkpt lat="43.77606" lon="4.25908">
        <ele>69</ele>
        <time>2017-11-03T17:09:44 01:00</time>
      </trkpt>
      <trkpt lat="43.77605" lon="4.25941">
        <ele>68</ele>
        <time>2017-11-03T17:09:51 01:00</time>
      </trkpt>
      <trkpt lat="43.77599" lon="4.25974">
        <ele>66</ele>
        <time>2017-11-03T17:09:59 01:00</time>
      </trkpt>
      <trkpt lat="43.77589" lon="4.26004">
        <ele>64</ele>
        <time>2017-11-03T17:10:07 01:00</time>
      </trkpt>
      <trkpt lat="43.77574" lon="4.26032">
        <ele>63</ele>
        <time>2017-11-03T17:10:14 01:00</time>
      </trkpt>
      <trkpt lat="43.77559" lon="4.26059">
        <ele>63</ele>
        <time>2017-11-03T17:10:20 01:00</time>
      </trkpt>
      <trkpt lat="43.77546" lon="4.26086">
        <ele>61</ele>
        <time>2017-11-03T17:10:39 01:00</time>
      </trkpt>
      <trkpt lat="43.77538" lon="4.26114">
        <ele>60</ele>
        <time>2017-11-03T17:10:45 01:00</time>
      </trkpt>
      <trkpt lat="43.77531" lon="4.26147">
        <ele>60</ele>
        <time>2017-11-03T17:10:51 01:00</time>
      </trkpt>
      <trkpt lat="43.77519" lon="4.26177">
        <ele>57</ele>
        <time>2017-11-03T17:10:57 01:00</time>
      </trkpt>
      <trkpt lat="43.77504" lon="4.26203">
        <ele>57</ele>
        <time>2017-11-03T17:11:03 01:00</time>
      </trkpt>
      <trkpt lat="43.77491" lon="4.26229">
        <ele>56</ele>
        <time>2017-11-03T17:11:11 01:00</time>
      </trkpt>
      <trkpt lat="43.77469" lon="4.26241">
        <ele>56</ele>
        <time>2017-11-03T17:11:31 01:00</time>
      </trkpt>
      <trkpt lat="43.77445" lon="4.26248">
        <ele>57</ele>
        <time>2017-11-03T17:11:37 01:00</time>
      </trkpt>
      <trkpt lat="43.77422" lon="4.2625">
        <ele>56</ele>
        <time>2017-11-03T17:11:43 01:00</time>
      </trkpt>
      <trkpt lat="43.77397" lon="4.26252">
        <ele>54</ele>
        <time>2017-11-03T17:11:51 01:00</time>
      </trkpt>
      <trkpt lat="43.77373" lon="4.26258">
        <ele>53</ele>
        <time>2017-11-03T17:11:57 01:00</time>
      </trkpt>
      <trkpt lat="43.77349" lon="4.26268">
        <ele>53</ele>
        <time>2017-11-03T17:12:02 01:00</time>
      </trkpt>
      <trkpt lat="43.77324" lon="4.26276">
        <ele>52</ele>
        <time>2017-11-03T17:12:08 01:00</time>
      </trkpt>
      <trkpt lat="43.773" lon="4.26285">
        <ele>51</ele>
        <time>2017-11-03T17:12:15 01:00</time>
      </trkpt>
      <trkpt lat="43.77277" lon="4.26292">
        <ele>51</ele>
        <time>2017-11-03T17:12:23 01:00</time>
      </trkpt>
      <trkpt lat="43.77252" lon="4.26291">
        <ele>51</ele>
        <time>2017-11-03T17:12:30 01:00</time>
      </trkpt>
      <trkpt lat="43.77228" lon="4.2629">
        <ele>50</ele>
        <time>2017-11-03T17:12:36 01:00</time>
      </trkpt>
      <trkpt lat="43.77203" lon="4.26283">
        <ele>50</ele>
        <time>2017-11-03T17:12:42 01:00</time>
      </trkpt>
      <trkpt lat="43.77181" lon="4.26279">
        <ele>50</ele>
        <time>2017-11-03T17:12:48 01:00</time>
      </trkpt>
      <trkpt lat="43.77157" lon="4.26284">
        <ele>49</ele>
        <time>2017-11-03T17:12:57 01:00</time>
      </trkpt>
      <trkpt lat="43.77134" lon="4.26288">
        <ele>49</ele>
        <time>2017-11-03T17:13:04 01:00</time>
      </trkpt>
      <trkpt lat="43.77111" lon="4.26294">
        <ele>49</ele>
        <time>2017-11-03T17:13:11 01:00</time>
      </trkpt>
      <trkpt lat="43.77088" lon="4.26301">
        <ele>48</ele>
        <time>2017-11-03T17:13:17 01:00</time>
      </trkpt>
      <trkpt lat="43.77065" lon="4.26305">
        <ele>48</ele>
        <time>2017-11-03T17:13:22 01:00</time>
      </trkpt>
      <trkpt lat="43.77041" lon="4.26301">
        <ele>48</ele>
        <time>2017-11-03T17:13:27 01:00</time>
      </trkpt>
      <trkpt lat="43.77016" lon="4.26293">
        <ele>48</ele>
        <time>2017-11-03T17:13:33 01:00</time>
      </trkpt>
      <trkpt lat="43.7699" lon="4.26286">
        <ele>49</ele>
        <time>2017-11-03T17:13:39 01:00</time>
      </trkpt>
      <trkpt lat="43.76969" lon="4.26277">
        <ele>50</ele>
        <time>2017-11-03T17:13:46 01:00</time>
      </trkpt>
      <trkpt lat="43.76948" lon="4.26259">
        <ele>51</ele>
        <time>2017-11-03T17:13:54 01:00</time>
      </trkpt>
      <trkpt lat="43.76928" lon="4.26244">
        <ele>53</ele>
        <time>2017-11-03T17:14:01 01:00</time>
      </trkpt>
      <trkpt lat="43.76904" lon="4.26234">
        <ele>55</ele>
        <time>2017-11-03T17:14:09 01:00</time>
      </trkpt>
      <trkpt lat="43.76882" lon="4.26227">
        <ele>56</ele>
        <time>2017-11-03T17:14:19 01:00</time>
      </trkpt>
      <trkpt lat="43.76858" lon="4.26227">
        <ele>57</ele>
        <time>2017-11-03T17:14:32 01:00</time>
      </trkpt>
      <trkpt lat="43.76834" lon="4.26227">
        <ele>57</ele>
        <time>2017-11-03T17:14:48 01:00</time>
      </trkpt>
      <trkpt lat="43.76811" lon="4.26235">
        <ele>58</ele>
        <time>2017-11-03T17:15:03 01:00</time>
      </trkpt>
      <trkpt lat="43.76788" lon="4.26237">
        <ele>59</ele>
        <time>2017-11-03T17:15:15 01:00</time>
      </trkpt>
      <trkpt lat="43.76763" lon="4.26239">
        <ele>58</ele>
        <time>2017-11-03T17:15:24 01:00</time>
      </trkpt>
      <trkpt lat="43.7674" lon="4.26238">
        <ele>58</ele>
        <time>2017-11-03T17:15:30 01:00</time>
      </trkpt>
      <trkpt lat="43.76716" lon="4.26235">
        <ele>58</ele>
        <time>2017-11-03T17:15:36 01:00</time>
      </trkpt>
      <trkpt lat="43.76694" lon="4.26238">
        <ele>58</ele>
        <time>2017-11-03T17:15:43 01:00</time>
      </trkpt>
      <trkpt lat="43.7667" lon="4.26248">
        <ele>56</ele>
        <time>2017-11-03T17:15:52 01:00</time>
      </trkpt>
      <trkpt lat="43.76644" lon="4.26253">
        <ele>55</ele>
        <time>2017-11-03T17:15:59 01:00</time>
      </trkpt>
      <trkpt lat="43.76618" lon="4.26257">
        <ele>55</ele>
        <time>2017-11-03T17:16:06 01:00</time>
      </trkpt>
      <trkpt lat="43.76592" lon="4.26257">
        <ele>54</ele>
        <time>2017-11-03T17:16:12 01:00</time>
      </trkpt>
      <trkpt lat="43.76565" lon="4.26252">
        <ele>54</ele>
        <time>2017-11-03T17:16:18 01:00</time>
      </trkpt>
      <trkpt lat="43.76541" lon="4.26248">
        <ele>57</ele>
        <time>2017-11-03T17:16:24 01:00</time>
      </trkpt>
      <trkpt lat="43.76516" lon="4.26247">
        <ele>57</ele>
        <time>2017-11-03T17:16:30 01:00</time>
      </trkpt>
      <trkpt lat="43.76492" lon="4.26254">
        <ele>56</ele>
        <time>2017-11-03T17:16:36 01:00</time>
      </trkpt>
      <trkpt lat="43.76468" lon="4.26261">
        <ele>56</ele>
        <time>2017-11-03T17:17:54 01:00</time>
      </trkpt>
      <trkpt lat="43.76445" lon="4.2627">
        <ele>56</ele>
        <time>2017-11-03T17:18:06 01:00</time>
      </trkpt>
      <trkpt lat="43.76421" lon="4.26264">
        <ele>57</ele>
        <time>2017-11-03T17:18:18 01:00</time>
      </trkpt>
      <trkpt lat="43.76401" lon="4.26243">
        <ele>57</ele>
        <time>2017-11-03T17:18:26 01:00</time>
      </trkpt>
      <trkpt lat="43.7638" lon="4.26227">
        <ele>56</ele>
        <time>2017-11-03T17:18:32 01:00</time>
      </trkpt>
      <trkpt lat="43.76354" lon="4.26218">
        <ele>56</ele>
        <time>2017-11-03T17:18:38 01:00</time>
      </trkpt>
      <trkpt lat="43.76329" lon="4.26218">
        <ele>55</ele>
        <time>2017-11-03T17:18:44 01:00</time>
      </trkpt>
      <trkpt lat="43.76305" lon="4.26219">
        <ele>54</ele>
        <time>2017-11-03T17:18:49 01:00</time>
      </trkpt>
      <trkpt lat="43.76277" lon="4.26219">
        <ele>54</ele>
        <time>2017-11-03T17:18:54 01:00</time>
      </trkpt>
      <trkpt lat="43.76253" lon="4.2622">
        <ele>54</ele>
        <time>2017-11-03T17:18:58 01:00</time>
      </trkpt>
      <trkpt lat="43.76231" lon="4.26223">
        <ele>52</ele>
        <time>2017-11-03T17:19:02 01:00</time>
      </trkpt>
      <trkpt lat="43.76205" lon="4.26227">
        <ele>51</ele>
        <time>2017-11-03T17:19:07 01:00</time>
      </trkpt>
      <trkpt lat="43.76182" lon="4.26233">
        <ele>51</ele>
        <time>2017-11-03T17:19:12 01:00</time>
      </trkpt>
      <trkpt lat="43.76159" lon="4.26244">
        <ele>49</ele>
        <time>2017-11-03T17:19:18 01:00</time>
      </trkpt>
      <trkpt lat="43.76139" lon="4.26262">
        <ele>47</ele>
        <time>2017-11-03T17:19:24 01:00</time>
      </trkpt>
      <trkpt lat="43.76114" lon="4.26271">
        <ele>46</ele>
        <time>2017-11-03T17:19:30 01:00</time>
      </trkpt>
      <trkpt lat="43.7609" lon="4.2628">
        <ele>45</ele>
        <time>2017-11-03T17:19:36 01:00</time>
      </trkpt>
      <trkpt lat="43.76067" lon="4.26291">
        <ele>42</ele>
        <time>2017-11-03T17:19:42 01:00</time>
      </trkpt>
      <trkpt lat="43.76043" lon="4.26303">
        <ele>41</ele>
        <time>2017-11-03T17:19:48 01:00</time>
      </trkpt>
      <trkpt lat="43.76018" lon="4.26308">
        <ele>40</ele>
        <time>2017-11-03T17:19:55 01:00</time>
      </trkpt>
      <trkpt lat="43.75996" lon="4.26299">
        <ele>38</ele>
        <time>2017-11-03T17:20:03 01:00</time>
      </trkpt>
      <trkpt lat="43.75974" lon="4.26279">
        <ele>37</ele>
        <time>2017-11-03T17:20:10 01:00</time>
      </trkpt>
      <trkpt lat="43.75953" lon="4.26261">
        <ele>37</ele>
        <time>2017-11-03T17:20:15 01:00</time>
      </trkpt>
      <trkpt lat="43.75933" lon="4.26241">
        <ele>35</ele>
        <time>2017-11-03T17:20:19 01:00</time>
      </trkpt>
      <trkpt lat="43.75912" lon="4.26219">
        <ele>34</ele>
        <time>2017-11-03T17:20:23 01:00</time>
      </trkpt>
      <trkpt lat="43.75895" lon="4.26199">
        <ele>33</ele>
        <time>2017-11-03T17:20:27 01:00</time>
      </trkpt>
      <trkpt lat="43.75872" lon="4.26197">
        <ele>33</ele>
        <time>2017-11-03T17:20:36 01:00</time>
      </trkpt>
      <trkpt lat="43.75855" lon="4.26222">
        <ele>34</ele>
        <time>2017-11-03T17:20:43 01:00</time>
      </trkpt>
      <trkpt lat="43.75838" lon="4.26246">
        <ele>35</ele>
        <time>2017-11-03T17:20:48 01:00</time>
      </trkpt>
      <trkpt lat="43.75819" lon="4.26275">
        <ele>35</ele>
        <time>2017-11-03T17:20:53 01:00</time>
      </trkpt>
      <trkpt lat="43.75802" lon="4.26302">
        <ele>34</ele>
        <time>2017-11-03T17:20:57 01:00</time>
      </trkpt>
      <trkpt lat="43.75791" lon="4.26336">
        <ele>33</ele>
        <time>2017-11-03T17:21:01 01:00</time>
      </trkpt>
      <trkpt lat="43.75797" lon="4.26375">
        <ele>32</ele>
        <time>2017-11-03T17:21:05 01:00</time>
      </trkpt>
      <trkpt lat="43.75805" lon="4.26406">
        <ele>32</ele>
        <time>2017-11-03T17:21:08 01:00</time>
      </trkpt>
      <trkpt lat="43.75814" lon="4.26437">
        <ele>30</ele>
        <time>2017-11-03T17:21:11 01:00</time>
      </trkpt>
      <trkpt lat="43.75825" lon="4.26473">
        <ele>29</ele>
        <time>2017-11-03T17:21:15 01:00</time>
      </trkpt>
      <trkpt lat="43.75836" lon="4.26506">
        <ele>29</ele>
        <time>2017-11-03T17:21:20 01:00</time>
      </trkpt>
      <trkpt lat="43.75812" lon="4.265">
        <ele>29</ele>
        <time>2017-11-03T17:21:36 01:00</time>
      </trkpt>
      <trkpt lat="43.75788" lon="4.26513">
        <ele>28</ele>
        <time>2017-11-03T17:21:43 01:00</time>
      </trkpt>
      <trkpt lat="43.75763" lon="4.26512">
        <ele>28</ele>
        <time>2017-11-03T17:21:50 01:00</time>
      </trkpt>
      <trkpt lat="43.75746" lon="4.26483">
        <ele>27</ele>
        <time>2017-11-03T17:21:56 01:00</time>
      </trkpt>
      <trkpt lat="43.75734" lon="4.26448">
        <ele>27</ele>
        <time>2017-11-03T17:22:01 01:00</time>
      </trkpt>
      <trkpt lat="43.75712" lon="4.26435">
        <ele>27</ele>
        <time>2017-11-03T17:22:06 01:00</time>
      </trkpt>
      <trkpt lat="43.75692" lon="4.26455">
        <ele>27</ele>
        <time>2017-11-03T17:22:11 01:00</time>
      </trkpt>
      <trkpt lat="43.75672" lon="4.26471">
        <ele>26</ele>
        <time>2017-11-03T17:22:18 01:00</time>
      </trkpt>
      <trkpt lat="43.75649" lon="4.26476">
        <ele>25</ele>
        <time>2017-11-03T17:22:29 01:00</time>
      </trkpt>
      <trkpt lat="43.75636" lon="4.26504">
        <ele>25</ele>
        <time>2017-11-03T17:22:37 01:00</time>
      </trkpt>
      <trkpt lat="43.75641" lon="4.26535">
        <ele>25</ele>
        <time>2017-11-03T17:22:43 01:00</time>
      </trkpt>
      <trkpt lat="43.75631" lon="4.26565">
        <ele>25</ele>
        <time>2017-11-03T17:22:51 01:00</time>
      </trkpt>
      <trkpt lat="43.7564" lon="4.26595">
        <ele>24</ele>
        <time>2017-11-03T17:22:58 01:00</time>
      </trkpt>
    </trkseg>
  </trk>
</gpx>